alloyus Games - Total: 8507
1 2 3 4 5 6 7 8 9
Rank Song Name Score PGAMB Combo Time
56 UR+ MusicEater LV99 802,880 518 - 0 - 0 - 0 - 1 518 2022-07-13 09:38:57
47 UR+ MusicEater LV99 2,991,490 1,934 - 4 - 0 - 1 - 0 1,927 2022-07-13 09:37:09
49 UR+ MusicEater LV99 2,519,640 1,627 - 4 - 0 - 1 - 0 1,624 2022-07-13 09:30:19
54 UR+ MusicEater LV99 957,605 617 - 1 - 0 - 0 - 1 618 2022-07-13 09:28:07
189 OWA Raged at Kurorak for Making OWA Raged at Skeletor [1.1x] 1,741,700 2,033 - 94 - 0 - 4 - 3 599 2022-07-13 09:22:45
366 Eclipse (Solar) [1.2x] 1,775,940 1,421 - 22 - 0 - 2 - 2 989 2022-07-13 09:20:06
31 CO5M1C R4ILR0AD [1.3x] 1,573,080 1,547 - 8 - 0 - 3 - 2 721 2022-07-13 09:18:20
54 UR+ MusicEater LV99 879,015 571 - 1 - 0 - 1 - 0 565 2022-07-12 16:43:44
15 UR+ MusicEater LV99 4,338,330 3,010 - 8 - 0 - 1 - 3 2,681 2022-07-12 16:42:24
16 UR+ MusicEater LV99 [FC] 4,676,070 3,007 - 12 - 0 - 0 - 4 3,019 2022-07-12 16:38:43
14 UR+ MusicEater LV99 [PB] 4,085,370 3,010 - 8 - 0 - 1 - 1 2,428 2022-07-12 16:31:45
18 UR+ MusicEater LV99 [FC] 4,674,515 3,002 - 16 - 1 - 0 - 2 3,019 2022-07-12 16:27:33
28 CO5M1C R4ILR0AD [1.3x] 1,826,800 1,549 - 8 - 0 - 1 - 2 973 2022-07-12 16:17:14
152 OWA Raged In Vegas (Fuck Bees) [1.1x] 2,893,940 2,940 - 76 - 2 - 3 - 7 1,257 2022-07-12 16:15:13
187 OWA Raged at Kurorak for Making OWA Raged at Skeletor [1.1x] 2,009,560 2,043 - 79 - 3 - 6 - 6 866 2022-07-12 16:11:56
82 Apologize 1,656,165 1,269 - 34 - 3 - 4 - 3 950 2022-07-12 16:09:16
41 Excuse My Rudeness, but Could You Please RIP? (t+pazolite Remix) 2,845,640 2,616 - 4 - 0 - 4 - 1 1,407 2022-07-12 16:07:53
25 Resistance [Aero Chord] 3,034,795 2,283 - 9 - 0 - 1 - 1 1,777 2022-07-12 16:04:22
437 Eclipse (Solar) [1.2x] 1,601,100 1,402 - 41 - 1 - 1 - 1 819 2022-07-12 16:01:10
318 A Kidney Stone [1.2x] 2,359,725 1,591 - 25 - 2 - 1 - 0 1,478 2022-07-12 15:59:20
33 Break [1.05x] [FC] 2,127,865 1,369 - 3 - 2 - 0 - 1 1,374 2022-07-12 15:57:08
196 Megalovania [1.1x] 1,851,545 1,622 - 5 - 0 - 3 - 0 959 2022-07-12 15:55:13
1,524 August (Hyper Euro Twin Turbo Mix) [2x] 819,485 525 - 5 - 0 - 2 - 1 530 2022-07-12 15:52:36
853 Final Fantasy 3 Boss [1.3x] 1,016,415 779 - 1 - 0 - 1 - 0 588 2022-07-12 15:51:24
266 Falcon Punch [1.3x] 1,287,085 1,078 - 3 - 0 - 2 - 1 694 2022-07-12 15:49:46
15 UR+ MusicEater LV99 [PB] 4,430,250 3,006 - 12 - 0 - 1 - 2 2,774 2022-07-10 10:38:23
50 UR+ MusicEater LV99 846,025 545 - 1 - 0 - 0 - 0 546 2022-07-10 10:34:29
18 UR+ MusicEater LV99 3,787,475 3,004 - 10 - 3 - 2 - 1 2,133 2022-07-10 10:30:53
18 UR+ MusicEater LV99 4,119,290 3,001 - 16 - 0 - 2 - 2 2,465 2022-07-10 10:26:07
16 UR+ MusicEater LV99 [PB] 4,423,405 3,003 - 15 - 0 - 1 - 3 2,768 2022-07-10 10:18:59
27 CO5M1C R4ILR0AD [1.3x] 2,221,250 1,547 - 10 - 0 - 1 - 2 1,368 2022-07-10 10:15:33
1 Excuse My Rudeness, but Could You Please RIP? (t+pazolite Remix) [AAA] [FC] 4,067,200 2,624 - 0 - 0 - 0 - 0 2,624 2022-07-10 10:13:22
1 The Lady is a Trump [AAA] [FC] [PB] 2,501,700 1,614 - 0 - 0 - 0 - 0 1,614 2022-07-10 10:10:12
1 safe_state [AAA] [FC] [PB] 2,821,000 1,820 - 0 - 0 - 0 - 0 1,820 2022-07-10 10:07:50
75 safe_state 356,105 279 - 1 - 0 - 2 - 0 203 2022-07-10 10:05:17
16 UR+ MusicEater LV99 [PB] 2,902,865 3,000 - 15 - 0 - 4 - 1 1,250 2022-07-09 13:13:35
19 UR+ MusicEater LV99 [SR] 3,205,715 2,983 - 33 - 0 - 3 - 4 1,557 2022-07-09 13:09:43
30 safe_state [FC] [SR] 2,819,385 1,815 - 4 - 1 - 0 - 1 1,820 2022-07-09 13:04:44
1 Janus [AAA] [FC] [PB] 2,458,300 1,586 - 0 - 0 - 0 - 0 1,586 2022-07-09 13:02:03
67 Janus [SR] 1,121,705 723 - 0 - 1 - 0 - 0 724 2022-07-09 12:59:41
1 CO5M1C R4ILR0AD [AAA] [FC] [PB] 2,414,900 1,558 - 0 - 0 - 0 - 0 1,558 2022-07-09 12:57:58
38 CO5M1C R4ILR0AD 412,640 269 - 0 - 0 - 1 - 0 265 2022-07-09 12:55:39
37 CO5M1C R4ILR0AD [SR] 669,580 432 - 0 - 0 - 0 - 1 432 2022-07-09 12:54:28
1 GLAZ [AAA] [FC] [SR] 2,142,100 1,382 - 0 - 0 - 0 - 0 1,382 2022-07-09 12:53:31
1 One Big Beautiful Sound [AAA] [FC] [SR] 1,819,700 1,174 - 0 - 0 - 0 - 0 1,174 2022-07-09 12:50:46
1 Dummy! [AAA] [FC] [SR] 1,596,500 1,030 - 0 - 0 - 0 - 0 1,030 2022-07-09 12:45:55
1 Last Summer [AAA] [FC] [SR] 1,044,700 674 - 0 - 0 - 0 - 0 674 2022-07-09 12:43:12
1 Excuse My Rudeness, but Could You Please RIP? (t+pazolite Remix) [AAA] [FC] [PB] 4,067,200 2,624 - 0 - 0 - 0 - 0 2,624 2022-07-01 08:33:39
17 Excuse My Rudeness, but Could You Please RIP? (t+pazolite Remix) 1,770,200 1,145 - 0 - 0 - 5 - 0 1,142 2022-07-01 08:30:23
17 Excuse My Rudeness, but Could You Please RIP? (t+pazolite Remix) 1,469,740 951 - 0 - 0 - 1 - 0 947 2022-07-01 08:28:33
19 Excuse My Rudeness, but Could You Please RIP? (t+pazolite Remix) 754,265 486 - 1 - 0 - 1 - 0 487 2022-07-01 08:27:11
24 Excuse My Rudeness, but Could You Please RIP? (t+pazolite Remix) [2200x] 0 0 - 0 - 0 - 0 - 10 0 2022-07-01 08:23:46
7 Excuse My Rudeness, but Could You Please RIP? (t+pazolite Remix) [PB] 3,672,480 2,622 - 0 - 0 - 2 - 0 2,231 2022-07-01 08:22:32
16 Excuse My Rudeness, but Could You Please RIP? (t+pazolite Remix) 2,400,290 1,552 - 0 - 0 - 1 - 0 1,547 2022-07-01 08:16:45
19 Excuse My Rudeness, but Could You Please RIP? (t+pazolite Remix) 851,915 549 - 1 - 0 - 1 - 0 550 2022-07-01 08:14:51
8 Excuse My Rudeness, but Could You Please RIP? (t+pazolite Remix) [PB] 3,730,220 2,619 - 4 - 0 - 1 - 1 2,289 2022-07-01 08:06:54
19 Excuse My Rudeness, but Could You Please RIP? (t+pazolite Remix) 750,270 483 - 2 - 0 - 3 - 0 485 2022-07-01 08:02:36
10 Excuse My Rudeness, but Could You Please RIP? (t+pazolite Remix) [PB] 2,525,265 2,606 - 13 - 0 - 5 - 3 1,090 2022-07-01 08:01:06
119 brute force 1,346,795 847 - 25 - 2 - 0 - 2 874 2022-07-01 07:57:18
96 Apologize 1,228,115 777 - 17 - 2 - 0 - 1 796 2022-07-01 07:56:18
38 Resistance [Aero Chord] 2,222,205 2,270 - 18 - 1 - 4 - 3 970 2022-07-01 07:55:16
36 Break [1.05x] 1,905,615 1,354 - 19 - 0 - 1 - 0 1,156 2022-07-01 07:51:26
61 Break [1.1x] 489,385 314 - 23 - 0 - 2 - 1 311 2022-07-01 07:49:46
318 Megalovania [1.2x] 1,480,970 1,604 - 22 - 0 - 4 - 2 594 2022-07-01 07:48:33
14 Excuse My Rudeness, but Could You Please RIP? (t+pazolite Remix) [SR] 1,647,045 1,538 - 10 - 1 - 2 - 2 799 2022-07-01 07:43:41
3 SHINE!! [SR] 4,902,560 4,449 - 41 - 1 - 2 - 5 2,445 2022-07-01 07:40:21
23 The Lady is a Trump [SR] 2,229,995 1,610 - 3 - 0 - 1 - 1 1,344 2022-07-01 07:35:30
1 NOW'S YOUR CHANCE TO BE A [[BIG SHOT]] (gomotion RMX) [AAA] [FC] [PB] 2,675,300 1,726 - 0 - 0 - 0 - 0 1,726 2022-07-01 07:32:14
8 NOW'S YOUR CHANCE TO BE A [[BIG SHOT]] (gomotion RMX) [PB] 2,058,165 1,724 - 1 - 0 - 1 - 0 1,110 2022-07-01 07:29:47
29 NOW'S YOUR CHANCE TO BE A [[BIG SHOT]] (gomotion RMX) [SR] 189,770 122 - 2 - 0 - 6 - 1 124 2022-07-01 07:27:19
1 Walking the Streets of a Former Hell [AAA] [FC] [PB] 3,148,050 2,031 - 0 - 0 - 0 - 0 2,031 2022-07-01 07:25:07
24 Walking the Streets of a Former Hell [SR] 1,378,155 890 - 1 - 0 - 2 - 0 889 2022-07-01 07:21:17
1 A Tiny Spaceship's Final Mission [AAA] [FC] [SR] 1,500,400 968 - 0 - 0 - 0 - 0 968 2022-07-01 07:17:11
1 Decadence [AAA] [FC] [PB] 1,545,350 997 - 0 - 0 - 0 - 0 997 2022-07-01 07:14:10
28 Decadence [SR] 703,660 455 - 0 - 0 - 5 - 2 455 2022-07-01 07:11:34
1 Space Doggity [AAA] [FC] [SR] 1,005,950 649 - 0 - 0 - 0 - 0 649 2022-07-01 07:09:42
89 OWA Raged at Home Run Derby 1,737,375 1,129 - 21 - 0 - 1 - 2 1,111 2022-06-30 11:08:39
298 Hello (BPM) 2021 1,009,920 881 - 253 - 3 - 17 - 5 461 2022-06-30 11:07:20
94 Undici 2,510,500 3,025 - 281 - 5 - 28 - 6 778 2022-06-30 11:06:15
58 Gamma Stop Sending Me High Quality Rips 3,267,280 3,492 - 194 - 2 - 12 - 3 1,297 2022-06-30 11:02:21
13,046 Reluctantly Accepting Temporary Overexhaustion 804,045 573 - 19 - 0 - 1 - 1 484 2022-06-30 10:58:28
666 Odd-22 541,500 366 - 2 - 0 - 1 - 2 340 2022-06-30 10:55:12
173 Sinthasomphone 1,352,515 876 - 12 - 1 - 2 - 1 868 2022-06-30 10:54:31
31 J-CORE SLi//CER Technique 2,703,545 2,305 - 15 - 0 - 1 - 1 1,432 2022-06-30 10:52:47
27 Apologize [FC] [PB] 3,039,425 1,942 - 23 - 0 - 0 - 0 1,965 2022-06-30 10:49:47
149 Apologize 13,950 13 - 0 - 0 - 20 - 0 13 2022-06-30 10:47:43
73 Undici 3,268,415 3,114 - 213 - 0 - 12 - 7 1,501 2022-06-25 11:01:39
383 Reluctantly Accepting Temporary Overexhaustion 2,311,105 1,470 - 30 - 1 - 2 - 4 1,495 2022-06-25 10:57:26
121 Reluctantly Accepting Temporary Overexhaustion [FC] 2,469,545 1,563 - 36 - 1 - 0 - 3 1,600 2022-06-25 10:55:22
520 Odd-22 1,150,725 735 - 10 - 1 - 1 - 1 744 2022-06-25 10:48:38
184 J-CORE SLi//CER Technique 1,691,950 1,085 - 8 - 0 - 0 - 0 1,093 2022-06-25 10:47:33
158 Brrrreeed Cicadididi 2,296,890 1,469 - 14 - 2 - 0 - 1 1,485 2022-06-25 10:46:12
3 Star of the COME ON!! [FC] [SR] 3,660,000 2,358 - 4 - 0 - 0 - 0 2,362 2022-06-25 10:43:21
5 Path to Nowhere [FC] [SR] 4,468,100 2,881 - 2 - 0 - 0 - 0 2,883 2022-06-25 10:40:04
1 Lawn Wake IV (Black) v2 [AAA] [FC] [PB] 2,596,250 1,675 - 0 - 0 - 0 - 0 1,675 2022-06-25 10:36:49
8 Lawn Wake IV (Black) v2 [SR] 2,241,820 1,672 - 2 - 0 - 1 - 1 1,322 2022-06-25 10:34:37
79 Apologize 1,861,590 1,253 - 21 - 1 - 1 - 4 1,167 2022-06-25 10:32:13
45 Upshift [1.1x] 2,276,650 2,123 - 18 - 0 - 3 - 1 1,105 2022-06-25 10:30:19
74 [line:epsilon] [1.1x] 1,915,795 1,991 - 19 - 2 - 5 - 2 817 2022-06-25 10:27:57
272 A Kidney Stone [1.2x] 1,712,965 1,604 - 11 - 0 - 4 - 1 829 2022-06-25 10:25:25
2,918 Vertex BETA [1.5x] 1,465,065 1,698 - 42 - 1 - 14 - 5 524 2022-06-25 10:23:17
163 BLUE ARMY v2 [1.3x] 1,934,495 1,281 - 82 - 1 - 2 - 2 1,208 2022-06-25 10:20:56
350 Holy Orders [1.3x] 3,045,175 2,721 - 31 - 0 - 6 - 2 1,542 2022-06-25 10:19:31
279 Trisection (Cowboys from FFT) v2 [1.4x] 1,319,265 1,488 - 40 - 1 - 7 - 1 492 2022-06-25 10:15:37
299 asdfmovie song [1.5x] 1,310,295 1,265 - 9 - 0 - 3 - 0 613 2022-06-25 10:13:16
220 Hello (Luke Da Duke Remix) [1.5x] 1,822,390 1,329 - 10 - 0 - 1 - 0 1,089 2022-06-25 10:11:22
872 Etude To A Dragon [2x] [FC] 1,191,675 768 - 1 - 0 - 0 - 0 769 2022-06-25 10:04:34
587 Stunt Flying (Sanxion7 Mix) [2x] [FC] 1,454,800 932 - 8 - 0 - 0 - 0 940 2022-06-25 10:03:20
381 Ding Dong Song v2 [2x] 1,212,475 780 - 3 - 0 - 1 - 2 783 2022-06-25 10:02:00
481 Big Blue v2 [2x] [FC] 1,064,475 681 - 7 - 0 - 0 - 0 688 2022-06-25 10:00:47
583 party 4u "holy nite mix" v3 [2x] [FC] 963,960 617 - 6 - 0 - 0 - 2 623 2022-06-25 09:59:34
542 EternuS [2x] 1,757,170 1,187 - 6 - 0 - 1 - 1 1,103 2022-06-25 09:58:30
1 V1 [2x] [AAA] [FC] 945,500 610 - 0 - 0 - 0 - 0 610 2022-06-25 09:56:22
1 Starman [2x] [AAA] [FC] 784,300 506 - 0 - 0 - 0 - 0 506 2022-06-25 09:54:58
955 So Long To The Circus [2x] 1,159,765 963 - 5 - 0 - 4 - 1 630 2022-06-25 09:52:47
620 Spontaneous Hydroxide v2 [2x] [FC] 929,175 597 - 3 - 0 - 0 - 0 600 2022-06-25 09:50:58
1,122 Forza Azzurri [2x] 1,121,245 836 - 16 - 1 - 3 - 4 658 2022-06-25 09:49:35
795 Orchestral Angels [2x] 1,190,990 1,071 - 15 - 1 - 4 - 0 599 2022-06-25 09:48:19
1,444 Green Twilight FFR Edit [2x] [FC] 966,825 618 - 7 - 0 - 0 - 0 625 2022-06-25 09:45:47
1 Fett's Vette [2x] [AAA] [FC] 782,750 505 - 0 - 0 - 0 - 0 505 2022-06-25 09:44:39
595 Synesthetic [2x] [FC] 1,191,400 767 - 2 - 0 - 0 - 0 769 2022-06-25 09:43:23
1,045 Cruel Whole (Abelcain Remix) [2x] 1,254,355 1,171 - 7 - 0 - 2 - 0 609 2022-06-25 09:41:49
721 Less Talk More Rokk (Mark Saunders Remix) [2x] 1,829,320 1,382 - 2 - 0 - 1 - 1 1,069 2022-06-25 09:39:40
589 Inspector Gadget [Dr. Steel] [2x] [FC] 762,325 491 - 1 - 0 - 0 - 0 492 2022-06-25 09:37:11
783 Get Ready 2 Rokk [2x] [FC] 1,668,800 1,075 - 2 - 0 - 0 - 0 1,077 2022-06-25 09:36:07
1 Child Protective Services Theme Song [Standard] [2x] [AAA] [FC] 864,900 558 - 0 - 0 - 0 - 0 558 2022-06-25 09:34:24
833 Tetris Remix [2x] [FC] 846,260 546 - 0 - 0 - 0 - 2 546 2022-06-25 09:32:50
1,209 Hungarian Dance No. 5 [2x] 794,790 562 - 0 - 0 - 1 - 0 486 2022-06-25 09:31:44
1,482 Mario Eurobeat [2x] [FC] 580,975 374 - 1 - 0 - 0 - 0 375 2022-06-25 09:30:14
612 Gruntilda's Lair [2x] 620,890 464 - 0 - 0 - 1 - 0 366 2022-06-25 09:29:33
1 Trisection (Cowboys from FFT) [2x] [AAA] [FC] 1,041,600 672 - 0 - 0 - 0 - 0 672 2022-06-25 09:28:45
1 Boss Machine [2x] [AAA] [FC] 891,250 575 - 0 - 0 - 0 - 0 575 2022-06-25 09:27:21
144 Sugar Rush [2x] [FC] 1,063,025 685 - 1 - 0 - 0 - 0 686 2022-06-25 09:26:04
774 Ieva's Polka (Basshunter Remix) [2x] [FC] 1,270,130 813 - 7 - 1 - 0 - 0 821 2022-06-25 09:24:38
1 Platypus [2x] [AAA] [FC] 638,600 412 - 0 - 0 - 0 - 0 412 2022-06-25 09:23:08
230 Boooring! [2x] [FC] 1,295,525 835 - 1 - 0 - 0 - 0 836 2022-06-25 09:22:11
1,235 August (Hyper Euro Twin Turbo Mix) [2x] 821,895 528 - 3 - 0 - 1 - 1 531 2022-06-25 09:20:44
1 Norgers [2x] [AAA] [FC] 706,800 456 - 0 - 0 - 0 - 0 456 2022-06-25 09:19:43
759 Vi Sitter I Ventrilo Och Spelar DotA [2x] [FC] 1,462,925 943 - 1 - 0 - 0 - 0 944 2022-06-25 09:18:48
1 Crab Rave [2x] [AAA] [FC] 615,350 397 - 0 - 0 - 0 - 0 397 2022-06-25 09:16:49
1 Parachute (stupid clowns) [2x] [AAA] [FC] 726,950 469 - 0 - 0 - 0 - 0 469 2022-06-25 09:16:04
1,937 Below The Surface [2x] [FC] 514,050 330 - 2 - 0 - 0 - 0 332 2022-06-25 09:14:51
3,624 Harry Potter Techno Remix [1.8x] 798,785 585 - 18 - 1 - 3 - 2 473 2022-06-25 09:13:42
5,224 Harry Potter Techno Remix [2x] 691,430 561 - 39 - 1 - 6 - 2 374 2022-06-25 09:12:37
1,454 Elements [2x] 728,715 525 - 1 - 0 - 1 - 0 440 2022-06-25 09:11:24
1,021 300 This is Sparta EXTENDED Mix [2x] [FC] 1,118,825 721 - 1 - 0 - 0 - 0 722 2022-06-25 09:10:32
1,435 Leeroy Jenkins (Fun Time Mix) [2x] 503,545 544 - 1 - 0 - 3 - 0 205 2022-06-25 09:09:18
1 Naisyaodakunyan [1.2x] [AAA] [FC] 1,252,400 808 - 0 - 0 - 0 - 0 808 2022-06-25 09:08:14
209 Dolphin Talk [1.2x] [FC] 1,371,475 884 - 1 - 0 - 0 - 0 885 2022-06-25 09:06:30
443 Torinouta (The Speed Freak's Noise Rave Remix) [1.2x] [FC] 1,779,125 1,147 - 1 - 0 - 0 - 0 1,148 2022-06-25 09:04:56
1 Forsaken Neon [1.2x] [AAA] [FC] 1,007,500 650 - 0 - 0 - 0 - 0 650 2022-06-25 09:02:30
495 Chaoz Japan [1.2x] [FC] 1,287,735 830 - 1 - 0 - 0 - 2 831 2022-06-25 09:01:06
1 System Split [1.2x] [AAA] [FC] 1,438,400 928 - 0 - 0 - 0 - 0 928 2022-06-25 08:59:45
1 =.The Ocean.= [1.2x] [AAA] [FC] 1,519,000 980 - 0 - 0 - 0 - 0 980 2022-06-25 08:57:39
1 Neon-213 [1.2x] [AAA] [FC] 1,015,250 655 - 0 - 0 - 0 - 0 655 2022-06-25 08:55:48
304 Gamma Stop Sending Me High Quality Rips 859,095 565 - 1 - 0 - 3 - 0 549 2022-06-19 11:55:34
781 Reluctantly Accepting Temporary Overexhaustion 1,399,360 1,294 - 24 - 2 - 3 - 6 682 2022-06-19 11:54:46
421 Odd-22 2,044,315 1,313 - 10 - 1 - 2 - 1 1,320 2022-06-19 11:53:28
135 The Disappearance of Hatsune Miku -Theatrical Version- [FC] 3,026,465 1,919 - 40 - 1 - 0 - 2 1,960 2022-06-19 11:51:28
55 Heterochromia Iridis [FC] 3,069,175 1,976 - 5 - 0 - 0 - 0 1,981 2022-06-19 11:48:54
26 Apologize [PB] 2,677,310 1,943 - 19 - 1 - 2 - 0 1,604 2022-06-19 11:46:37
75 Wanderflux 2,563,330 2,910 - 112 - 4 - 13 - 8 936 2022-06-17 08:32:05
125 Starflight 1,592,005 1,467 - 62 - 1 - 3 - 1 769 2022-06-17 08:29:00
773 Powerflux 1,362,240 878 - 6 - 0 - 1 - 0 878 2022-06-17 08:27:29
361 Make the Fire Burn 3,495,550 2,255 - 13 - 1 - 1 - 1 2,252 2022-06-17 08:26:15
129 Parousia-LAST JUDGEMENT- 2,918,555 1,889 - 3 - 2 - 1 - 1 1,879 2022-06-17 08:22:50
29 OWA Raged at Home Run Derby [FC] 4,752,585 3,054 - 14 - 1 - 0 - 1 3,069 2022-06-17 08:20:21
412 Hello (BPM) 2021 667,715 498 - 92 - 1 - 8 - 3 371 2022-06-17 08:16:38
47 Gamma Stop Sending Me High Quality Rips [PB] 3,392,955 3,589 - 97 - 2 - 12 - 3 1,396 2022-06-17 08:15:32
136 Reluctantly Accepting Temporary Overexhaustion 1,849,880 1,554 - 43 - 1 - 2 - 4 984 2022-06-17 08:11:28
130 Reluctantly Accepting Temporary Overexhaustion 1,503,980 1,558 - 39 - 1 - 2 - 4 637 2022-06-17 08:09:19
420 Poison of the Earth 2,244,125 1,447 - 1 - 0 - 0 - 0 1,448 2022-06-17 08:07:12
40 Dreamin' attraction!! (Extended) [PB] 3,689,975 3,685 - 95 - 0 - 6 - 2 1,639 2022-06-17 08:05:06
287 Extratone Firestorm 1,089,905 1,323 - 210 - 1 - 21 - 2 311 2022-06-17 08:00:29
967 Crystal Chamber Combustion (bike) 287,860 260 - 46 - 0 - 9 - 0 135 2022-06-17 07:58:48
178 Tachyon Beam Cannon 2,088,915 2,473 - 270 - 5 - 44 - 6 668 2022-06-17 07:58:17
67 Undici [PB] 2,863,170 3,151 - 165 - 3 - 20 - 11 1,091 2022-06-17 07:55:21
38 Ra Variationen [PB] 3,488,545 4,308 - 86 - 3 - 15 - 1 1,100 2022-06-17 07:50:26
24 Symphonies Of Suckness [FC] [PB] 4,696,805 3,008 - 27 - 0 - 0 - 1 3,035 2022-06-17 07:45:10
137 I'm A Fucking Idiot 2,276,980 2,111 - 36 - 4 - 7 - 1 1,108 2022-06-17 07:40:54
79 Odd-22 3,155,260 2,229 - 25 - 1 - 2 - 0 1,923 2022-06-17 07:37:56
1 Gate Openerz [AAA] [FC] [PB] 3,441,000 2,220 - 0 - 0 - 0 - 0 2,220 2022-06-17 07:33:22
39 Mishnu [PB] 2,840,245 2,791 - 33 - 2 - 3 - 3 1,297 2022-06-17 07:29:36
187 Sinthasomphone 888,390 567 - 14 - 0 - 1 - 0 573 2022-06-17 07:25:51
1,022 Staple on Smile 859,875 571 - 4 - 1 - 1 - 1 545 2022-06-17 07:24:46
119 Radiata (The Quick Brown Fox 'UV' RMX) 807,440 525 - 0 - 0 - 1 - 0 519 2022-06-17 07:23:57
151 J-CORE SLi//CER Technique 2,224,655 1,438 - 5 - 0 - 2 - 0 1,433 2022-06-17 07:23:02
143 Visitor 444,575 286 - 1 - 0 - 0 - 0 287 2022-06-17 07:21:13
90 Visitor 3,395,775 2,190 - 1 - 0 - 0 - 0 2,191 2022-06-17 07:19:58
1 Amen Babylon [AAA] [FC] [SR] 4,071,850 2,627 - 0 - 0 - 0 - 0 2,627 2022-06-17 07:16:35
1 Break [AAA] [FC] [PB] 2,129,700 1,374 - 0 - 0 - 0 - 0 1,374 2022-06-17 07:12:08
9 Break [PB] 868,585 561 - 1 - 0 - 4 - 0 561 2022-06-17 07:10:30
10 Break [SR] 158,100 106 - 0 - 0 - 20 - 0 106 2022-06-17 07:09:48
47 Gamma Stop Sending Me High Quality Rips [PB] 3,400,410 3,587 - 95 - 3 - 15 - 4 1,406 2022-06-15 16:45:03
4,622 Reluctantly Accepting Temporary Overexhaustion 1,169,420 957 - 17 - 1 - 2 - 2 639 2022-06-15 16:41:04
24,625 Reluctantly Accepting Temporary Overexhaustion 30,995 22 - 3 - 0 - 3 - 0 19 2022-06-15 16:39:58
36 Hello (BPM) 2021 [PB] 1,902,645 2,462 - 256 - 3 - 32 - 5 488 2022-06-15 16:39:03
301 Violent Arcade 1,977,025 1,271 - 9 - 0 - 8 - 1 1,278 2022-06-15 16:36:20
2,847 J'ai Envie de Plaisir X2 553,555 358 - 1 - 0 - 2 - 0 357 2022-06-15 16:34:18
28 !!!Chaos Time!!! [Cut Edition] [PB] 2,720,995 1,745 - 13 - 0 - 1 - 1 1,758 2022-06-15 16:33:00
89 OWA Raged at Home Run Derby 1,528,115 991 - 5 - 0 - 1 - 0 982 2022-06-15 16:30:36
95 OWA Raged at Home Run Derby 594,015 391 - 1 - 0 - 1 - 0 379 2022-06-15 16:29:35
600 Heterochromia Iridis 2,567,670 1,657 - 6 - 0 - 1 - 1 1,655 2022-06-15 16:28:50
3,245 Heterochromia Iridis 148,250 94 - 2 - 0 - 0 - 0 96 2022-06-15 16:26:34
71 OWA Raged at Kurorak for Making OWA Raged at Skeletor 2,199,540 2,119 - 10 - 0 - 2 - 2 1,032 2022-06-15 16:25:56
1,710 OWA Raged at Kurorak for Making OWA Raged at Skeletor 12,400 8 - 0 - 0 - 0 - 0 8 2022-06-15 16:22:39
30 OWA Raged In Vegas (Fuck Bees) [FC] 4,680,585 3,014 - 7 - 0 - 0 - 2 3,021 2022-06-15 16:22:12
5,090 La Campanella 597,640 389 - 0 - 0 - 1 - 0 384 2022-06-15 16:18:24
974 Chik Habit 972,850 626 - 2 - 0 - 0 - 0 628 2022-06-15 16:17:27
42 Lawn Wake II [FC] [PB] 2,444,075 1,576 - 1 - 0 - 0 - 0 1,577 2022-06-15 16:16:02
18 Giselle 1,826,365 1,568 - 1 - 0 - 1 - 0 964 2022-06-15 16:12:44
524 Tiger Rag 837,890 544 - 0 - 0 - 1 - 0 539 2022-06-15 16:10:15
33 Tiger Rag [FC] 2,770,850 1,786 - 2 - 0 - 0 - 0 1,788 2022-06-15 16:08:32
375 Poison of the Earth 3,085,775 1,990 - 1 - 0 - 0 - 0 1,991 2022-06-15 16:02:08
1 Overklock [AAA] [FC] [PB] 2,325,000 1,500 - 0 - 0 - 0 - 0 1,500 2022-06-15 15:59:24
1,021 Overklock 648,005 416 - 3 - 0 - 2 - 0 419 2022-06-15 15:56:55
17 Mario Trap [FC] [PB] 1,730,250 1,113 - 4 - 0 - 0 - 0 1,117 2022-06-15 15:54:59
15 Here We Go [FC] 1,864,375 1,202 - 1 - 0 - 0 - 0 1,203 2022-06-15 15:53:29
1 Cruel Whole (Abelcain Remix) v2 [AAA] [FC] [PB] 1,233,800 796 - 0 - 0 - 0 - 0 796 2022-06-15 15:51:34
1 BEER [Is-m] [AAA] [FC] [PB] 1,815,050 1,171 - 0 - 0 - 0 - 0 1,171 2022-06-15 15:49:21
520 BEER [Is-m] 700,490 453 - 0 - 0 - 2 - 2 452 2022-06-15 15:47:32
1 Rudi the Techno Pioneer [AAA] [FC] [PB] 2,528,050 1,631 - 0 - 0 - 0 - 0 1,631 2022-06-15 15:46:18
1 Benson & Hedges (Venetian Snares Remix) [AAA] [FC] [PB] 3,310,800 2,136 - 0 - 0 - 0 - 0 2,136 2022-06-15 15:43:13
1 Twister [AAA] [FC] [PB] 3,535,550 2,281 - 0 - 0 - 0 - 0 2,281 2022-06-15 15:39:19
1 The Games We Played [Full Version] [AAA] [FC] [PB] 9,069,050 5,851 - 0 - 0 - 0 - 0 5,851 2022-06-15 15:33:42
1 Angelic Jelly [AAA] [FC] [PB] 2,244,400 1,448 - 0 - 0 - 0 - 0 1,448 2022-06-15 15:14:46
65 Apologize [0.97x] 2,011,930 1,539 - 29 - 1 - 5 - 0 1,159 2022-06-15 15:12:34
92 Apologize 1,284,555 823 - 7 - 0 - 0 - 1 830 2022-06-15 15:10:55
96 Apologize 1,145,880 736 - 4 - 0 - 0 - 1 740 2022-06-15 15:09:58
107 Apologize 1,019,075 655 - 3 - 0 - 0 - 0 658 2022-06-15 15:09:04
37 Apologize 2,334,145 1,877 - 81 - 2 - 5 - 2 1,281 2022-06-15 15:08:08
84 [line:epsilon] [1.1x] 2,232,170 1,980 - 32 - 0 - 5 - 4 1,136 2022-06-15 15:05:50
42 Upshift [1.1x] 2,682,510 2,127 - 13 - 1 - 3 - 2 1,510 2022-06-15 15:03:21
85 Eclipse (Solar) [1.1x] [FC] 2,239,200 1,443 - 2 - 0 - 0 - 0 1,445 2022-06-15 14:59:47
168 A Kidney Stone [1.1x] 2,079,940 1,612 - 6 - 0 - 1 - 0 1,192 2022-06-15 14:55:55
175 All i wanna do is touch your powerpoints [1.1x] 1,580,840 1,410 - 6 - 0 - 1 - 0 804 2022-06-15 14:53:43
536 Destination Of The Heart [1.3x] 1,080,795 982 - 4 - 3 - 5 - 1 541 2022-06-15 14:51:05
701 Exciting Hyper Highspeed Star [1.3x] 1,865,805 1,332 - 3 - 0 - 2 - 0 1,133 2022-06-15 14:49:36
52 Whales of Iocaste [3x] [FC] 316,375 200 - 5 - 0 - 0 - 0 205 2022-06-15 14:47:55
1 Whales of Iocaste [2x] [AAA] [FC] 317,750 205 - 0 - 0 - 0 - 0 205 2022-06-15 14:47:26
1 Super Charged [1.3x] [AAA] [FC] 1,495,750 965 - 0 - 0 - 0 - 0 965 2022-06-15 14:46:40
208 Falcon Punch [1.3x] 1,163,930 1,081 - 0 - 0 - 2 - 0 570 2022-06-15 14:45:06
851 Final Fantasy 3 Boss [1.3x] 1,140,415 779 - 1 - 0 - 1 - 0 712 2022-06-15 14:43:09
838 Twister 2,210,025 1,425 - 1 - 0 - 0 - 0 1,426 2022-06-13 16:08:47
1 Throwin' Down [AAA] [FC] [PB] 4,123,000 2,660 - 0 - 0 - 0 - 0 2,660 2022-06-13 16:06:23
44 Breath After Breath 4,076,840 2,626 - 14 - 0 - 1 - 0 2,629 2022-06-13 16:00:45
41 Heterochromia Iridis [FC] 3,069,725 1,978 - 3 - 0 - 0 - 0 1,981 2022-06-13 15:57:30
41 Critical.Error 3,104,415 3,067 - 115 - 4 - 20 - 4 1,392 2022-06-13 15:53:52
30 You Show [FC] [PB] 2,838,360 1,823 - 10 - 0 - 0 - 2 1,833 2022-06-13 15:49:50
41 You Universe [PB] 1,763,310 1,518 - 22 - 0 - 2 - 1 923 2022-06-13 15:47:35
51 Violent Arcade 3,622,535 2,525 - 20 - 5 - 3 - 3 2,229 2022-06-13 15:45:05
94 brute force 1,585,230 1,350 - 53 - 1 - 6 - 2 830 2022-06-13 15:42:05
614 Powerflux 2,286,945 1,500 - 25 - 0 - 3 - 0 1,456 2022-06-13 15:40:44
66 Wanderflux [PB] 2,652,480 2,951 - 74 - 4 - 10 - 2 1,012 2022-06-13 15:39:03
81 Dreamin' attraction!! (Extended) [PB] 1,779,970 1,703 - 31 - 1 - 4 - 1 836 2022-06-13 15:35:47
20 Parousia-LAST JUDGEMENT- [PB] 3,312,795 2,564 - 8 - 1 - 2 - 2 1,901 2022-06-13 15:33:29
29 Zen'on [PB] 2,423,900 1,768 - 14 - 0 - 1 - 2 1,448 2022-06-13 15:30:18
10 The Ever Increasing Death Toll of Birds In My Life 2,971,160 2,926 - 64 - 4 - 6 - 5 1,346 2022-06-13 15:28:06
26 OWA Raged at Home Run Derby [PB] 3,514,570 3,056 - 11 - 1 - 1 - 0 1,831 2022-06-13 15:23:58
85 OWA Raged at Home Run Derby 2,324,160 1,497 - 5 - 1 - 2 - 0 1,500 2022-06-13 15:20:07
1,506 Heterochromia Iridis 1,346,400 867 - 2 - 0 - 0 - 0 869 2022-06-13 15:18:21
3,245 Heterochromia Iridis [0.9x] 148,525 95 - 1 - 0 - 0 - 0 96 2022-06-13 15:15:04
3,248 Heterochromia Iridis 142,645 94 - 1 - 0 - 1 - 1 91 2022-06-13 15:14:48
3,248 Heterochromia Iridis 147,975 93 - 3 - 0 - 0 - 0 96 2022-06-13 15:14:38
3,245 Heterochromia Iridis 148,525 95 - 1 - 0 - 0 - 0 96 2022-06-13 15:14:27
2,752 Heterochromia Iridis 340,265 226 - 1 - 0 - 1 - 0 216 2022-06-13 15:14:12
133 The Disappearance of Hatsune Miku -Theatrical Version- 2,282,260 1,929 - 26 - 2 - 3 - 1 1,215 2022-06-13 15:13:41
38 Hello (BPM) 2021 [PB] 2,508,170 2,439 - 275 - 9 - 30 - 5 1,100 2022-06-13 15:11:11
49 Gamma Stop Sending Me High Quality Rips [PB] 3,408,480 3,569 - 113 - 3 - 15 - 3 1,419 2022-06-13 15:07:53
13,145 Reluctantly Accepting Temporary Overexhaustion 877,915 563 - 13 - 0 - 1 - 0 565 2022-06-13 15:03:59
382 Reluctantly Accepting Temporary Overexhaustion 1,576,905 1,469 - 31 - 0 - 5 - 1 762 2022-06-13 15:02:01
126 Reluctantly Accepting Temporary Overexhaustion 1,787,555 1,562 - 34 - 1 - 3 - 1 920 2022-06-13 15:00:24
330 I'm A Fucking Idiot 602,095 549 - 9 - 0 - 1 - 1 298 2022-06-13 14:58:46
73 Odd-22 [PB] 2,871,045 2,232 - 22 - 1 - 2 - 2 1,638 2022-06-13 14:57:44
27 Blackmagik Blazing [FC] 6,118,425 3,927 - 24 - 1 - 0 - 4 3,952 2022-06-13 14:53:58
519 Blackmagik Blazing 13,950 9 - 0 - 0 - 0 - 0 9 2022-06-13 14:47:41
95 Adcar 2,830,565 1,828 - 3 - 0 - 2 - 2 1,825 2022-06-13 14:47:28
18 Apologize [0.96x] 2,419,790 1,960 - 4 - 0 - 1 - 0 1,341 2022-06-13 14:45:11
84 Apologize 1,690,940 1,100 - 9 - 1 - 5 - 2 1,085 2022-06-13 14:42:48
1,448 System Doctor 1,976,540 1,286 - 2 - 0 - 1 - 0 1,269 2022-06-11 11:09:15
235 The Disappearance of Hatsune Miku -Theatrical Version- 2,876,945 1,892 - 43 - 2 - 11 - 9 1,828 2022-06-11 11:06:25
3,838 The Disappearance of Hatsune Miku -Theatrical Version- 530,110 347 - 3 - 1 - 2 - 0 339 2022-06-11 11:04:14
143 Metro 1,512,975 972 - 5 - 0 - 0 - 0 977 2022-06-11 11:03:22
89 OWA Raged at Home Run Derby 916,535 937 - 3 - 0 - 2 - 1 401 2022-06-11 11:01:49
10 Mario-chi Survivor [Oni] [FC] [PB] 4,792,480 3,087 - 6 - 0 - 0 - 1 3,093 2022-06-11 11:00:22
1,279 You Universe 750,230 480 - 14 - 0 - 2 - 0 483 2022-06-11 10:57:17
50 Violent Arcade 2,803,940 2,524 - 24 - 2 - 3 - 2 1,410 2022-06-11 10:56:34
86 brute force 1,537,265 1,520 - 58 - 1 - 12 - 1 689 2022-06-11 10:53:47
74 Wanderflux 3,118,625 2,924 - 93 - 2 - 20 - 3 1,491 2022-06-11 10:52:21
49 Gamma Stop Sending Me High Quality Rips [PB] 3,203,155 3,552 - 142 - 1 - 5 - 0 1,212 2022-06-11 10:47:30
39 Hello (BPM) 2021 2,177,640 2,410 - 297 - 5 - 41 - 5 783 2022-06-11 10:43:24
149 Reluctantly Accepting Temporary Overexhaustion 1,899,060 1,551 - 42 - 2 - 5 - 5 1,036 2022-06-11 10:41:01
274 Sinthasomphone 61,945 40 - 1 - 0 - 1 - 1 40 2022-06-11 10:39:14
21 Blackmagik Blazing [PB] 4,381,120 3,938 - 10 - 2 - 2 - 1 2,213 2022-06-11 10:36:19
25 Adcar 3,911,440 2,879 - 12 - 0 - 1 - 0 2,325 2022-06-11 10:31:38
73 Mike French Hardcore Custom 446,480 302 - 0 - 0 - 2 - 0 281 2022-06-11 10:28:20
1 Bliss [AAA] [FC] [SR] 1,443,050 931 - 0 - 0 - 0 - 0 931 2022-06-11 10:26:51
1 Super Charged [AAA] [FC] [PB] 1,495,750 965 - 0 - 0 - 0 - 0 965 2022-06-11 10:23:58
22 Super Charged [SR] 41,850 31 - 0 - 0 - 20 - 0 31 2022-06-11 10:22:10
293 Blackmagik Blazing 981,380 638 - 4 - 0 - 2 - 0 630 2022-06-08 12:27:21
50 VIS::CRACKED 3,728,345 2,536 - 10 - 3 - 1 - 3 2,331 2022-06-08 12:26:17
31 J-CORE SLi//CER Technique 3,548,565 2,305 - 15 - 0 - 1 - 0 2,277 2022-06-08 12:22:59
25 Adcar [FC] 4,478,510 2,878 - 13 - 1 - 0 - 1 2,892 2022-06-08 12:20:17
59 We Want To Run 2,887,740 2,715 - 76 - 2 - 8 - 2 1,376 2022-06-08 12:16:24
28 Apologize [0.96x] 1,942,445 1,937 - 20 - 3 - 5 - 1 873 2022-06-08 12:11:24
51 Gamma Stop Sending Me High Quality Rips [PB] 3,047,550 3,563 - 118 - 4 - 15 - 6 1,060 2022-06-08 12:08:40
303 Gamma Stop Sending Me High Quality Rips 860,310 565 - 8 - 0 - 2 - 1 548 2022-06-08 12:04:25
130 Reluctantly Accepting Temporary Overexhaustion 1,669,635 1,561 - 34 - 1 - 4 - 4 803 2022-06-08 12:03:36
39 Hello (BPM) 2021 2,156,265 2,425 - 292 - 7 - 29 - 9 751 2022-06-08 12:01:22
21 Mario Trap 1,650,115 1,111 - 5 - 0 - 1 - 0 1,038 2022-06-08 11:58:12
91 Unconnected. 1,297,900 1,297 - 11 - 3 - 2 - 1 582 2022-06-08 11:56:41
75 Zen'on 710,205 462 - 9 - 0 - 1 - 3 454 2022-06-08 11:54:45
28 Metro [FC] 3,829,910 2,466 - 6 - 0 - 0 - 2 2,472 2022-06-08 11:53:56
35 OWA Raged at Home Run Derby [PB] 2,892,520 3,047 - 18 - 0 - 4 - 2 1,213 2022-06-08 11:50:15
5 endleSSStation [FC] [PB] 4,261,950 2,748 - 2 - 0 - 0 - 0 2,750 2022-06-08 11:45:14
109 The Disappearance of Hatsune Miku -Theatrical Version- 2,671,925 1,941 - 14 - 3 - 2 - 1 1,601 2022-06-08 11:41:03
82 Odd-22 2,523,485 2,226 - 27 - 0 - 4 - 0 1,293 2022-06-08 11:38:41
69 Wanderflux [PB] 2,584,415 2,939 - 82 - 3 - 15 - 5 950 2022-06-08 11:35:45
45 Powerflux [PB] 4,726,340 4,036 - 40 - 4 - 2 - 3 2,496 2022-06-08 11:32:02
76 brute force 1,887,995 1,780 - 110 - 7 - 8 - 8 881 2022-06-08 11:28:12
320 Violent Arcade 1,117,960 1,009 - 13 - 1 - 2 - 0 560 2022-06-08 11:26:32
51 toromi hearts 2 3,320,275 2,138 - 5 - 0 - 0 - 0 2,143 2022-06-08 11:20:38
814 Exciting Hyper Highspeed Star [1.3x] 1,269,670 1,330 - 4 - 0 - 3 - 0 538 2022-06-08 11:17:37
326 Destination Of The Heart [1.3x] 993,705 991 - 1 - 0 - 2 - 0 449 2022-06-08 11:16:07
634 Ambient Angels [1.3x] 1,643,750 1,265 - 8 - 2 - 1 - 0 946 2022-06-08 11:14:19
313 October [1.3x] 2,238,830 1,556 - 6 - 0 - 2 - 0 1,382 2022-06-08 11:12:32
1 Hajnal [1.3x] [AAA] [FC] 3,100,000 2,000 - 0 - 0 - 0 - 0 2,000 2022-06-08 11:09:42
447 Big Blue [1.3x] 1,424,170 1,360 - 5 - 1 - 4 - 1 676 2022-06-08 11:06:04
319 Megalovania [1.3x] 1,835,060 1,600 - 28 - 0 - 2 - 1 948 2022-06-08 11:04:23
190 Tetris [Powerglove] [1.3x] 1,969,230 1,858 - 12 - 0 - 3 - 2 945 2022-06-08 11:02:13
59 Gym Leader Battle Music (Hi Tech Remix) [1.3x] 2,324,495 1,757 - 9 - 0 - 1 - 1 1,356 2022-06-08 10:59:43
367 The Rapids [1.3x] 1,464,440 1,432 - 11 - 1 - 4 - 0 675 2022-06-08 10:57:15
227 Starwolf [1.3x] [FC] 1,789,425 1,152 - 3 - 0 - 0 - 0 1,155 2022-06-08 10:55:24
121 Colibri [1.3x] [FC] 2,104,605 1,357 - 1 - 0 - 0 - 1 1,358 2022-06-08 10:53:46
1,085 Classical Insanity [1.3x] 1,428,160 1,093 - 6 - 0 - 2 - 1 826 2022-06-08 10:51:22
154 May The Triforce Be With You [1.3x] [FC] 1,986,825 1,281 - 1 - 0 - 0 - 0 1,282 2022-06-08 10:48:40
379 Monstrous Turtles! [1.3x] [FC] 2,145,180 1,384 - 0 - 0 - 0 - 1 1,384 2022-06-08 10:46:49
461 K8107 [1.3x] 1,474,090 1,066 - 4 - 0 - 1 - 0 887 2022-06-08 10:43:50
1 Vertex BETA [1.3x] [AAA] [FC] 2,720,250 1,755 - 0 - 0 - 0 - 0 1,755 2022-06-08 10:41:44
306 Major League Can Can [1.3x] 995,895 698 - 7 - 0 - 3 - 0 611 2022-06-08 10:39:15
295 Retro City [1.3x] 1,458,520 1,306 - 2 - 0 - 1 - 1 740 2022-06-08 10:37:57
1 Cirno's Perfect Math Class [1.3x] [AAA] [FC] 1,920,450 1,239 - 0 - 0 - 0 - 0 1,239 2022-06-08 10:35:48
1 He's a Pirate - F-777 ReMiX [1.3x] [AAA] [FC] 1,498,850 967 - 0 - 0 - 0 - 0 967 2022-06-08 10:33:57
880 Beep Beep I'm a Sheep (Tombstone Remix) [1.3x] 60,450 39 - 0 - 0 - 0 - 0 39 2022-06-08 10:32:17
134 We Killed The Rave [1.3x] [FC] 1,917,330 1,237 - 0 - 0 - 0 - 1 1,237 2022-06-08 10:32:02
193 Addict (Dr. Ozi Monsta r3mix) [1.3x] [FC] 1,554,375 1,002 - 1 - 0 - 0 - 0 1,003 2022-06-08 10:29:29
1 Speedcore Sunday [1.3x] [AAA] [FC] 1,815,050 1,171 - 0 - 0 - 0 - 0 1,171 2022-06-08 10:27:27
1 V1 v2 [1.3x] [AAA] [FC] 1,813,500 1,170 - 0 - 0 - 0 - 0 1,170 2022-06-08 10:25:10
1,685 OTAKU SPEEDVIBE [Heavy] [1.3x] 102,300 66 - 0 - 0 - 0 - 0 66 2022-06-08 10:23:32
2,533 Color of Giggles [1.3x] 328,290 212 - 0 - 0 - 1 - 0 212 2022-06-08 10:10:12
1 IDOL (Danpa with Posing Guys ver.) [1.3x] [AAA] [FC] 1,573,250 1,015 - 0 - 0 - 0 - 0 1,015 2022-06-08 10:09:00
332 {Big Boss} [1.3x] [FC] 923,525 595 - 1 - 0 - 0 - 0 596 2022-06-08 10:06:55
479 DMYK [1.3x] 2,249,530 1,513 - 0 - 0 - 2 - 0 1,418 2022-06-08 10:05:39
5,875 Destined Marionette [1.3x] 13,950 9 - 0 - 0 - 0 - 0 9 2022-06-08 10:03:31
1 Over the Rave [1.3x] [AAA] [FC] 1,596,500 1,030 - 0 - 0 - 0 - 0 1,030 2022-06-08 10:03:20
679 Starlight [Macgravel] [1.3x] [FC] 1,097,830 705 - 4 - 0 - 0 - 1 709 2022-06-08 10:01:30
252 Falcon Punch [1.3x] 1,254,380 1,079 - 2 - 0 - 2 - 0 661 2022-06-08 09:59:30
1 Aztec Templing (Techno-Titlan Mix) [1.3x] [AAA] [FC] 1,491,100 962 - 0 - 0 - 0 - 0 962 2022-06-08 09:57:36
523 Wish (For FFR) [1.3x] [FC] 1,746,575 1,126 - 1 - 0 - 0 - 0 1,127 2022-06-08 09:56:01
197 The Whip [1.3x] 1,688,790 1,282 - 0 - 0 - 1 - 0 984 2022-06-08 09:54:20
1 Feels [AAA] [FC] [SR] 551,800 356 - 0 - 0 - 0 - 0 356 2022-06-08 09:51:43
1 Whales of Iocaste [AAA] [FC] [SR] 317,750 205 - 0 - 0 - 0 - 0 205 2022-06-08 09:48:28
1 Cheat Codes [1.3x] [AAA] [FC] 933,100 602 - 0 - 0 - 0 - 0 602 2022-06-08 09:47:01
1 Final Fantasy 3 Boss [1.3x] [AAA] [FC] 1,210,550 781 - 0 - 0 - 0 - 0 781 2022-06-08 09:45:37
5 Badman Ballad [PB] 4,765,420 3,463 - 4 - 0 - 1 - 1 2,860 2022-06-01 12:38:27
11 Mike French Hardcore Custom [FC] 1,508,875 971 - 3 - 0 - 0 - 0 974 2022-06-01 12:33:26
234 Wanderflux 2,088,190 1,716 - 87 - 1 - 5 - 2 1,122 2022-06-01 12:31:51
626 Powerflux 2,252,640 1,430 - 38 - 0 - 1 - 0 1,456 2022-06-01 12:29:51
90 brute force 1,826,415 1,398 - 87 - 2 - 8 - 2 1,036 2022-06-01 12:28:20
44 Violent Arcade 2,733,425 2,530 - 19 - 0 - 4 - 3 1,338 2022-06-01 12:26:22
1,268 You Universe 752,840 488 - 11 - 1 - 2 - 1 482 2022-06-01 12:23:35
78 Mario-chi Survivor [Oni] 2,929,085 1,884 - 7 - 0 - 0 - 2 1,891 2022-06-01 12:22:40
122 Mario-chi Survivor [Oni] 1,618,695 1,044 - 3 - 0 - 1 - 1 1,044 2022-06-01 12:20:29
24 endleSSStation [FC] 4,259,235 2,739 - 10 - 1 - 0 - 1 2,750 2022-06-01 12:16:29
292 Make the Fire Burn 3,727,440 2,394 - 23 - 1 - 2 - 1 2,405 2022-06-01 12:12:33
133 The Disappearance of Hatsune Miku -Theatrical Version- 2,703,205 1,928 - 28 - 1 - 3 - 1 1,636 2022-06-01 12:09:19
1 Minute Waltz [AAA] [FC] [PB] 1,638,350 1,057 - 0 - 0 - 0 - 0 1,057 2022-06-01 12:05:27
22,147 Minute Waltz 518,390 333 - 2 - 0 - 1 - 0 335 2022-06-01 12:03:43
73 Minute Waltz [FC] 1,638,075 1,056 - 1 - 0 - 0 - 0 1,057 2022-06-01 12:02:44
22,985 Minute Waltz 451,030 291 - 0 - 0 - 0 - 1 291 2022-06-01 12:00:45
90 We Want To Run 2,996,265 2,613 - 171 - 4 - 13 - 5 1,516 2022-06-01 11:59:50
592 We Want To Run 6,200 4 - 0 - 0 - 0 - 0 4 2022-06-01 11:55:34
1,274 Staple on Smile 424,325 268 - 7 - 0 - 0 - 0 275 2022-06-01 11:55:21
1,442 Staple on Smile 199,840 132 - 2 - 0 - 1 - 0 127 2022-06-01 11:55:02
221 Blackmagik Blazing 1,912,990 1,280 - 7 - 1 - 3 - 3 1,208 2022-06-01 11:54:49
88 Adcar 2,519,935 2,047 - 7 - 2 - 3 - 1 1,393 2022-06-01 11:53:14
35 High-Priestess 3,050,350 1,989 - 10 - 0 - 1 - 2 1,954 2022-06-01 11:50:49
361 Tool-Assisted Speedcore (TQBF Frame Advance RMX) 1,453,025 964 - 5 - 0 - 5 - 0 923 2022-06-01 11:48:20
67 System Doctor 2,945,150 2,069 - 9 - 1 - 1 - 1 1,805 2022-06-01 11:46:53
173 Sinthasomphone 1,009,450 804 - 8 - 0 - 3 - 1 566 2022-06-01 11:43:34
19 !!!Chaos Time!!! (Uncut Ed!t!on) [PB] 4,741,145 3,173 - 24 - 1 - 2 - 2 2,990 2022-06-01 11:42:11
376 Reluctantly Accepting Temporary Overexhaustion 2,120,800 1,462 - 47 - 1 - 4 - 2 1,305 2022-06-01 11:38:17
35 Gamma Stop Sending Me Ratchet and Clank Videos to Sample 3,663,920 3,757 - 267 - 5 - 19 - 12 1,530 2022-06-01 11:36:00
45 Hello (BPM) 2021 1,714,405 2,265 - 420 - 15 - 53 - 12 369 2022-06-01 11:31:31
59 Gamma Stop Sending Me High Quality Rips 2,819,805 3,457 - 222 - 3 - 18 - 9 863 2022-06-01 11:28:37
120 Gamma Stop Sending Me Ratchet and Clank Videos to Sample 985,825 758 - 43 - 2 - 3 - 4 558 2022-06-01 11:24:44
84 OWA Raged at Home Run Derby 2,349,195 1,511 - 9 - 0 - 1 - 1 1,516 2022-06-01 11:23:20
35 Zen'on [FC] 2,754,865 1,752 - 30 - 1 - 0 - 2 1,783 2022-06-01 11:20:28
150 Parousia-LAST JUDGEMENT- 1,419,295 1,147 - 5 - 0 - 3 - 0 788 2022-06-01 11:17:57
11 ANiMA [Full Version] [PB] 4,240,315 3,606 - 11 - 0 - 3 - 4 2,255 2022-06-01 11:16:03
140 Metro 2,321,945 1,494 - 13 - 0 - 1 - 1 1,497 2022-06-01 11:11:28
18 Apologize [0.95x] [FC] 3,043,550 1,957 - 8 - 0 - 0 - 0 1,965 2022-06-01 11:09:01
418 OWA Raged In Vegas (Fuck Bees) 3,067,140 1,977 - 4 - 0 - 1 - 0 1,979 2022-06-01 11:06:23
718 OWA Raged at Kurorak for Making OWA Raged at Skeletor 848,315 557 - 1 - 0 - 1 - 0 542 2022-06-01 11:04:04
197 J-CORE SLi//CER Technique 1,403,585 895 - 12 - 1 - 0 - 1 908 2022-06-01 11:02:52
310 Exam Cram [Oni] 941,215 613 - 5 - 0 - 1 - 0 603 2022-06-01 11:01:14
20 Badman Ballad [PB] 1,848,590 1,197 - 2 - 0 - 1 - 0 1,190 2022-06-01 11:00:05
23 Badman Ballad [SR] 460,055 296 - 1 - 0 - 0 - 1 297 2022-06-01 10:58:14
1 Deadman DJ [AAA] [FC] [SR] 3,718,450 2,399 - 0 - 0 - 0 - 0 2,399 2022-06-01 10:57:10
60 Upshift [1.1x] 1,972,370 2,109 - 29 - 1 - 5 - 3 806 2022-06-01 10:53:37
570 Throwin' Down 1,268,880 817 - 2 - 0 - 0 - 1 819 2022-06-01 10:51:12
18 Once Upon a Time in Transylvania 3,303,840 2,313 - 0 - 0 - 1 - 0 2,032 2022-06-01 10:48:25
225 A Kidney Stone [1.1x] [FC] 2,505,765 1,608 - 8 - 3 - 0 - 0 1,619 2022-06-01 10:44:57
233 Megalovania [1.2x] 1,909,495 1,617 - 10 - 1 - 2 - 2 1,018 2022-06-01 10:42:44
5,621 Megalovania 69,750 45 - 0 - 0 - 0 - 0 45 2022-06-01 10:40:22
118 All i wanna do is touch your powerpoints 1,972,940 1,414 - 2 - 0 - 1 - 0 1,195 2022-06-01 10:39:52
4,301 All i wanna do is touch your powerpoints 246,450 159 - 0 - 0 - 0 - 0 159 2022-06-01 10:36:30
297 Gamma Stop Sending Me High Quality Rips 906,355 581 - 11 - 2 - 1 - 1 584 2022-05-24 10:38:17
931 Hyper Weaboo Vodka Shots 381,785 244 - 2 - 1 - 0 - 1 247 2022-05-24 10:37:22
88 Radiata (The Quick Brown Fox 'UV' RMX) 1,892,545 1,283 - 26 - 1 - 1 - 0 1,180 2022-05-24 10:36:43
1 Thunder Light [AAA] [FC] [PB] 2,932,600 1,892 - 0 - 0 - 0 - 0 1,892 2022-05-24 10:33:53
549 Throwin' Down 1,464,510 944 - 2 - 0 - 4 - 0 946 2022-05-24 10:30:53
564 Throwin' Down 1,337,375 862 - 1 - 0 - 0 - 0 863 2022-05-24 10:27:31
32 The Games We Played [Full Version] [FC] [PB] 9,068,775 5,850 - 1 - 0 - 0 - 0 5,851 2022-05-24 10:17:31
629 The Games We Played [Full Version] 3,265,575 2,106 - 1 - 0 - 0 - 0 2,107 2022-05-24 09:59:12
44 Brrrreeed Cicadididi 2,926,535 2,629 - 19 - 0 - 2 - 1 1,476 2022-05-24 09:50:20
2,128 Magical 8bit Tour 1,848,955 1,224 - 5 - 0 - 2 - 0 1,175 2022-05-24 09:45:34
7,078 Almost There [Oni] 817,940 533 - 4 - 0 - 1 - 0 524 2022-05-24 09:43:46
8,358 Almost There [Oni] 641,150 412 - 2 - 0 - 0 - 0 414 2022-05-24 09:42:46
7,111 Almost There [Oni] 818,705 530 - 3 - 0 - 2 - 0 527 2022-05-24 09:41:53
8,329 Almost There [Oni] 645,340 415 - 0 - 2 - 0 - 1 417 2022-05-24 09:40:57
31 Playing Super Mario World While Taking Mushrooms [FC] [PB] 4,071,300 2,625 - 2 - 0 - 0 - 0 2,627 2022-05-24 09:39:46
1 Punkture [AAA] [FC] [PB] 2,066,150 1,333 - 0 - 0 - 0 - 0 1,333 2022-05-24 09:33:49
627 Punkture 523,690 340 - 0 - 0 - 1 - 0 337 2022-05-24 09:31:58
23 Punkture 2,017,995 1,331 - 1 - 0 - 1 - 1 1,286 2022-05-24 09:31:06
52 toromi hearts 2 2,175,650 1,402 - 2 - 0 - 0 - 0 1,404 2022-05-24 09:29:03
62 STRANGEPROGRAM [1.2x] 2,963,910 3,018 - 189 - 1 - 32 - 5 1,262 2022-05-24 09:27:01
1 BLUE ARMY v2 [AAA] [FC] [PB] 4,834,450 3,119 - 0 - 0 - 0 - 0 3,119 2022-05-24 09:17:04
238 BLUE ARMY v2 386,840 253 - 0 - 0 - 1 - 0 248 2022-05-24 09:13:51
171 BLUE ARMY v2 1,787,380 1,150 - 3 - 1 - 0 - 0 1,154 2022-05-24 09:12:19
13 Grief & Malice [FC] [PB] 4,974,985 3,209 - 0 - 1 - 0 - 1 3,210 2022-05-24 09:09:30
55 toromi hearts 2 1,724,940 1,110 - 1 - 3 - 0 - 0 1,114 2022-05-24 09:05:05
27 Mike French Hardcore Custom 1,362,595 881 - 5 - 0 - 1 - 1 877 2022-05-24 09:03:49
8 Mike French Hardcore Custom [FC] [PB] 1,509,405 973 - 1 - 0 - 0 - 1 974 2022-05-24 09:02:19
8 Mike French Hardcore Custom [FC] [PB] 1,509,150 972 - 2 - 0 - 0 - 0 974 2022-05-24 09:00:05
1 PYROMANIA [AAA] [FC] [PB] 3,027,150 1,953 - 0 - 0 - 0 - 0 1,953 2022-05-24 08:57:12
11 PYROMANIA [SR] 2,469,740 1,950 - 2 - 0 - 1 - 0 1,397 2022-05-24 08:53:58
1 Blooddrunk v2 [AAA] [FC] [SR] 4,422,150 2,853 - 0 - 0 - 0 - 0 2,853 2022-05-24 08:49:07
1 Monstrous Turtles! [1.3x] [AAA] [FC] 2,145,200 1,384 - 0 - 0 - 0 - 0 1,384 2022-05-24 08:44:38
1 Kirby's Dream Land [1.4x] [AAA] [FC] 1,467,850 947 - 0 - 0 - 0 - 0 947 2022-05-24 08:41:26
1 Kirby's Dream Land [1.3x] [AAA] [FC] 1,467,850 947 - 0 - 0 - 0 - 0 947 2022-05-24 08:39:48
225 Megalovania [1.2x] 2,028,735 1,617 - 11 - 0 - 2 - 1 1,137 2022-05-24 08:37:31
1 Final Fantasy 3 Boss [1.3x] [AAA] [FC] 1,210,550 781 - 0 - 0 - 0 - 0 781 2022-05-24 08:35:07
71,757 Final Fantasy 3 Boss [1.3x] 13,950 9 - 0 - 0 - 0 - 0 9 2022-05-24 08:33:54
59 Apologize 2,418,625 1,542 - 36 - 1 - 1 - 6 1,561 2022-05-19 12:03:34
35 OWA Raged at Home Run Derby [PB] 3,410,630 3,043 - 24 - 0 - 2 - 0 1,731 2022-05-19 12:01:24
373 Hello (BPM) 2021 644,895 505 - 92 - 1 - 7 - 2 344 2022-05-19 11:57:43
60 Extratone Firestorm [PB] 2,446,485 2,821 - 438 - 19 - 56 - 10 791 2022-05-19 11:57:02
29 Gamma Stop Sending Me Ratchet and Clank Videos to Sample [PB] 3,466,930 3,888 - 145 - 1 - 14 - 3 1,293 2022-05-19 11:51:38
34 Track title [PB] 3,672,050 4,374 - 156 - 4 - 15 - 6 1,228 2022-05-19 11:46:50
56 Gamma Stop Sending Me High Quality Rips 2,844,460 3,524 - 150 - 6 - 20 - 6 871 2022-05-19 11:41:54
39 Fury [PB] 4,179,465 4,100 - 165 - 0 - 9 - 6 1,882 2022-05-19 11:36:40
422 Fury 23,250 15 - 0 - 0 - 0 - 0 15 2022-05-19 11:29:20
322 I'm A Fucking Idiot 798,655 539 - 3 - 0 - 2 - 0 502 2022-05-19 11:29:03
1,250 Staple on Smile 450,435 285 - 6 - 1 - 0 - 1 292 2022-05-19 11:28:00
1,430 Staple on Smile 212,240 141 - 0 - 0 - 1 - 0 135 2022-05-19 11:27:39
33 High-Priestess 2,654,605 1,992 - 3 - 2 - 3 - 0 1,559 2022-05-19 11:27:15
1,820 System Doctor 734,570 477 - 2 - 0 - 1 - 1 472 2022-05-19 11:24:44
2,176 System Doctor 483,325 311 - 1 - 0 - 0 - 0 312 2022-05-19 11:23:25
31 Six Acid Strings [FC] 2,837,925 1,827 - 4 - 1 - 0 - 4 1,832 2022-05-19 11:22:16
187 J-CORE SLi//CER Technique 1,535,610 987 - 7 - 3 - 1 - 1 991 2022-05-19 11:19:47
1,640 Jamais Vu 833,890 543 - 2 - 0 - 1 - 0 535 2022-05-19 11:18:33
19 Happy Arnold=) [FC] [PB] 3,573,925 2,300 - 7 - 0 - 0 - 0 2,307 2022-05-19 11:17:29
43 cold (Kurorak's Bootleg) [PB] 1,879,960 1,740 - 8 - 2 - 1 - 2 921 2022-05-19 11:13:24
2,676 Heterochromia Iridis 271,980 250 - 4 - 0 - 2 - 0 134 2022-05-19 11:11:13
21 Reluctantly Accepting Temporary Overexhaustion v2 [FC] [PB] 4,783,355 3,077 - 11 - 0 - 0 - 1 3,088 2022-05-19 11:10:10
10 Reparatus+Paradisus [PB] 2,675,380 2,630 - 14 - 0 - 3 - 2 1,226 2022-05-19 11:06:28
20 Extratone in a Perfect World [FC] [PB] 2,071,800 1,335 - 2 - 0 - 0 - 0 1,337 2022-05-19 11:03:07
55 !!!Chaos Time!!! [Cut Edition] 1,918,935 1,725 - 28 - 1 - 5 - 1 964 2022-05-19 11:00:54
12 toromi hearts 2 [FC] [PB] 4,029,450 2,598 - 2 - 0 - 0 - 0 2,600 2022-05-19 10:58:09
8 Mike French Hardcore Custom [FC] [PB] 1,508,875 971 - 3 - 0 - 0 - 0 974 2022-05-19 10:55:04
10 Mike French Hardcore Custom [FC] [SR] 1,508,105 969 - 4 - 1 - 0 - 0 974 2022-05-19 10:53:08
1 Passing You By [AAA] [FC] [SR] 1,683,300 1,086 - 0 - 0 - 0 - 0 1,086 2022-05-19 10:51:43
1 If You Can't Hang [AAA] [FC] [SR] 2,807,050 1,811 - 0 - 0 - 0 - 0 1,811 2022-05-19 10:49:20
1 Arranging Matches [AAA] [FC] [SR] 954,800 616 - 0 - 0 - 0 - 0 616 2022-05-19 10:46:06
1 BUBBLES [AAA] [FC] [SR] 1,647,650 1,063 - 0 - 0 - 0 - 0 1,063 2022-05-19 10:44:38
1 I'm the Boss (Big Bad Bosses Remix) [AAA] [FC] [SR] 1,658,500 1,070 - 0 - 0 - 0 - 0 1,070 2022-05-19 10:42:00
1 Neon Dream [AAA] [FC] [PB] 2,148,300 1,386 - 0 - 0 - 0 - 0 1,386 2022-05-19 10:36:24
33 Neon Dream [SR] 381,640 249 - 0 - 0 - 1 - 0 245 2022-05-19 10:33:22
1 Ready To Fall [AAA] [FC] [SR] 2,917,100 1,882 - 0 - 0 - 0 - 0 1,882 2022-05-19 10:32:21
1 Koneko's Cafe [AAA] [FC] [PB] 2,128,150 1,373 - 0 - 0 - 0 - 0 1,373 2022-05-19 10:27:26
55 Koneko's Cafe [SR] 62,000 40 - 0 - 0 - 0 - 0 40 2022-05-19 10:23:53
232 Death Piano 2,034,520 2,356 - 75 - 3 - 19 - 9 724 2022-05-17 18:13:04
41 Ra Variationen [PB] 3,185,755 4,282 - 107 - 4 - 19 - 5 807 2022-05-17 18:09:41
87 Gamma Stop Sending Me High Quality Rips 2,691,505 3,272 - 111 - 8 - 16 - 5 866 2022-05-17 18:03:52
29 Parousia-LAST JUDGEMENT- 3,802,965 2,542 - 31 - 0 - 2 - 2 2,397 2022-05-17 17:59:43
46 OWA Raged at Home Run Derby [PB] 3,127,465 3,031 - 34 - 1 - 3 - 3 1,452 2022-05-17 17:56:32
43 Breath After Breath 3,701,190 2,386 - 8 - 0 - 1 - 0 2,387 2022-05-17 17:52:41
65 Breath After Breath 524,890 344 - 0 - 0 - 1 - 0 336 2022-05-17 17:50:24
66 Breath After Breath 438,375 282 - 1 - 0 - 0 - 0 283 2022-05-17 17:49:54
44 Breath After Breath 3,419,570 2,210 - 17 - 1 - 2 - 2 2,200 2022-05-17 17:49:19
35 Hello (BPM) 2021 [PB] 2,079,540 2,437 - 274 - 8 - 34 - 3 674 2022-05-17 17:46:46
38 That's Gonna Be [PB] 1,921,415 2,225 - 36 - 1 - 7 - 6 690 2022-05-17 17:42:21
86 Reluctantly Accepting Temporary Overexhaustion [PB] 1,828,305 1,578 - 21 - 0 - 1 - 3 955 2022-05-17 17:39:11
129 Reluctantly Accepting Temporary Overexhaustion 1,451,235 1,564 - 27 - 4 - 5 - 3 585 2022-05-17 17:37:06
109 The Disappearance of Hatsune Miku -Theatrical Version- 3,012,870 1,937 - 21 - 1 - 1 - 0 1,942 2022-05-17 17:35:06
80 Odd-22 2,873,635 2,229 - 24 - 1 - 3 - 2 1,642 2022-05-17 17:32:39
170 Sinthasomphone 830,805 807 - 7 - 0 - 3 - 2 386 2022-05-17 17:30:06
55 We Want To Run [PB] 2,884,770 2,725 - 63 - 5 - 8 - 5 1,371 2022-05-17 17:28:08
107 Adcar 1,732,550 1,117 - 2 - 0 - 1 - 2 1,118 2022-05-17 17:23:56
134 Adcar 741,695 484 - 3 - 0 - 1 - 1 475 2022-05-17 17:22:30
13 Tool-Assisted Speedcore (TQBF Frame Advance RMX) [PB] 4,348,360 3,541 - 5 - 1 - 2 - 0 2,400 2022-05-17 17:20:55
74 Radiata (The Quick Brown Fox 'UV' RMX) 2,580,600 1,660 - 25 - 1 - 1 - 1 1,661 2022-05-17 17:16:32
19 Finding Her Not [FC] [PB] 4,704,425 3,031 - 5 - 0 - 0 - 0 3,036 2022-05-17 17:14:28
611 Powerflux 2,357,915 1,506 - 41 - 0 - 2 - 2 1,519 2022-05-17 17:10:40
30 brute force [PB] 2,731,220 3,181 - 88 - 6 - 12 - 7 961 2022-05-17 17:09:04
1,093 You Universe 851,615 622 - 11 - 2 - 2 - 0 507 2022-05-17 17:05:51
46 Violent Arcade 3,686,550 2,524 - 28 - 0 - 1 - 2 2,291 2022-05-17 17:04:47
11 Mario-chi Survivor [Oni] [FC] [PB] 4,790,885 3,082 - 10 - 1 - 0 - 1 3,093 2022-05-17 17:01:34
26 Hyper Weaboo Vodka Shots [FC] [PB] 3,235,785 2,082 - 6 - 1 - 0 - 1 2,089 2022-05-17 16:58:20
29 You Show [PB] 2,482,070 1,824 - 8 - 0 - 1 - 1 1,477 2022-05-17 16:56:09
56 Exam Cram [Oni] 2,338,135 1,563 - 6 - 3 - 1 - 1 1,477 2022-05-17 16:52:32
8 Fushigi Usagi Milk Tei [FC] [PB] 2,769,810 1,787 - 0 - 0 - 0 - 2 1,787 2022-05-17 16:48:43
1,181 cold (Kurorak's Bootleg) 991,240 637 - 3 - 1 - 3 - 3 641 2022-05-17 16:46:06
34 Shindeiru 2,594,940 1,993 - 6 - 2 - 3 - 2 1,498 2022-05-17 16:45:05
107 Extratone Pirates (Drunk Optimus Remix) 2,713,230 1,865 - 14 - 0 - 1 - 3 1,684 2022-05-17 16:42:10
23 Apologize [0.95x] [FC] 3,041,955 1,952 - 12 - 1 - 0 - 0 1,965 2022-05-17 16:39:42
79 Apologize 1,449,900 1,096 - 30 - 2 - 4 - 1 840 2022-05-17 16:37:17
34 Resistance [Aero Chord] 2,838,950 2,274 - 15 - 1 - 3 - 0 1,585 2022-05-17 16:36:03
12 HeadXplit [FC] 3,885,005 2,504 - 3 - 0 - 0 - 1 2,507 2022-05-17 16:32:50
25 FACTORY_RESET [FC] 2,108,900 1,354 - 8 - 0 - 0 - 0 1,362 2022-05-17 16:29:55
33 Angelic Jelly 2,039,145 1,442 - 5 - 0 - 1 - 1 1,245 2022-05-17 16:28:15
9 Lyrith -Labyrinth Lilith- [FC] 2,897,950 1,868 - 2 - 0 - 0 - 0 1,870 2022-05-17 16:26:05
64 A Kidney Stone [FC] 2,509,175 1,618 - 1 - 0 - 0 - 0 1,619 2022-05-17 16:23:03
5,826 A Kidney Stone 31,000 20 - 0 - 0 - 0 - 0 20 2022-05-17 16:20:49
4,878 A Kidney Stone 211,690 140 - 0 - 0 - 1 - 0 135 2022-05-17 16:20:13
5,702 A Kidney Stone 44,950 29 - 0 - 0 - 0 - 0 29 2022-05-17 16:19:44
292 Exam Cram [Oni] 935,915 609 - 1 - 0 - 1 - 0 601 2022-05-03 09:43:13
345 Violent Arcade 808,650 626 - 12 - 0 - 3 - 1 462 2022-05-03 09:41:52
44 Mario-chi Survivor [Oni] 3,423,930 2,829 - 18 - 0 - 3 - 2 1,864 2022-05-03 09:40:59
74 Apologize 1,867,150 1,157 - 71 - 1 - 2 - 8 1,212 2022-05-03 09:38:02
113 We Want To Run 2,855,505 2,559 - 181 - 12 - 14 - 2 1,402 2022-05-03 09:36:33
201 Sinthasomphone 647,040 408 - 9 - 3 - 0 - 0 420 2022-05-03 09:32:29
4,138 Minute Waltz 1,144,605 736 - 3 - 0 - 0 - 1 739 2022-05-03 09:31:14
22,984 Minute Waltz 450,775 290 - 1 - 0 - 0 - 0 291 2022-05-03 09:29:50
85 OWA Raged at Home Run Derby 1,587,145 1,019 - 12 - 1 - 2 - 2 1,024 2022-05-03 09:29:12
26 Parousia-LAST JUDGEMENT- [PB] 3,482,830 2,548 - 23 - 1 - 3 - 1 2,076 2022-05-03 09:28:03
104 Adcar 1,298,140 1,136 - 6 - 0 - 1 - 0 672 2022-05-03 09:24:51
221 Blackmagik Blazing 1,837,025 1,180 - 12 - 1 - 1 - 1 1,185 2022-05-03 09:23:12
59 OWA Raged at Kurorak for Making OWA Raged at Skeletor 2,826,440 2,120 - 10 - 0 - 1 - 0 1,658 2022-05-03 09:21:36
3,095 Heterochromia Iridis 200,655 127 - 3 - 0 - 0 - 1 130 2022-05-03 09:18:44
3,230 Heterochromia Iridis 148,250 94 - 2 - 0 - 0 - 0 96 2022-05-03 09:18:30
163 The Disappearance of Hatsune Miku -Theatrical Version- 1,890,175 1,909 - 45 - 2 - 4 - 1 829 2022-05-03 09:18:06
18,526 Death Piano 915,560 896 - 18 - 0 - 23 - 3 425 2022-04-23 09:38:32
147 Reluctantly Accepting Temporary Overexhaustion 1,663,820 1,548 - 46 - 2 - 4 - 5 801 2022-04-23 09:34:54
4,389 Minute Waltz 1,126,575 726 - 1 - 0 - 0 - 0 727 2022-04-23 09:31:27
22,103 Minute Waltz 517,215 335 - 1 - 0 - 1 - 0 333 2022-04-23 09:30:06
73 Minute Waltz [FC] [PB] 1,638,075 1,056 - 1 - 0 - 0 - 0 1,057 2022-04-23 09:29:21
21,828 Minute Waltz 538,850 346 - 2 - 0 - 0 - 0 348 2022-04-23 09:27:22
84 Minute Waltz [FC] [PB] 1,637,800 1,055 - 2 - 0 - 0 - 0 1,057 2022-04-23 09:26:24
53 OWA Raged at Home Run Derby 3,476,905 3,019 - 45 - 2 - 3 - 5 1,805 2022-04-23 09:23:48
798 cold (Kurorak's Bootleg) 1,504,720 966 - 10 - 0 - 1 - 1 971 2022-04-23 09:20:06
25 System Doctor [PB] 2,985,590 2,077 - 2 - 0 - 1 - 0 1,843 2022-04-23 09:17:40
41 Brrrreeed Cicadididi 2,958,100 2,629 - 20 - 0 - 1 - 2 1,507 2022-04-23 09:14:08
266 Happy Arnold=) 1,234,590 795 - 6 - 0 - 1 - 0 796 2022-04-23 09:11:06
69 Radiata (The Quick Brown Fox 'UV' RMX) 2,019,980 1,484 - 34 - 2 - 2 - 3 1,195 2022-04-23 09:10:04
36 J-CORE SLi//CER Technique [FC] 3,590,380 2,295 - 26 - 0 - 0 - 1 2,321 2022-04-23 09:08:13
48 OWA Raged at Kurorak for Making OWA Raged at Skeletor [FC] 3,300,830 2,123 - 8 - 0 - 0 - 1 2,131 2022-04-23 09:05:15
1,184 OWA Raged at Kurorak for Making OWA Raged at Skeletor 157,550 100 - 2 - 0 - 0 - 0 102 2022-04-23 09:02:34
65 We Want To Run 2,400,260 2,699 - 82 - 4 - 16 - 0 898 2022-04-23 08:59:44
25 Blackmagik Blazing 4,319,760 3,926 - 22 - 2 - 2 - 4 2,155 2022-04-23 08:54:22
196 Blackmagik Blazing 2,293,395 1,477 - 5 - 0 - 1 - 1 1,480 2022-04-23 08:49:00
186 Sinthasomphone 746,540 485 - 4 - 0 - 1 - 0 479 2022-04-23 08:47:07
96 Odd-22 3,024,110 2,207 - 47 - 1 - 2 - 5 1,798 2022-04-23 08:45:45
39 Hello (BPM) 2021 1,759,000 2,285 - 425 - 5 - 38 - 6 397 2022-04-23 08:42:52
66 That's Gonna Be 1,727,625 2,155 - 94 - 5 - 15 - 5 521 2022-04-23 08:40:20
57 Gamma Stop Sending Me High Quality Rips 3,218,385 3,496 - 172 - 9 - 23 - 4 1,255 2022-04-23 08:37:31
38 Adcar 4,062,005 2,842 - 48 - 1 - 1 - 2 2,486 2022-04-23 08:24:08
21 High-Priestess [FC] [PB] 3,097,760 1,992 - 8 - 0 - 0 - 2 2,000 2022-04-23 08:20:17
96 Starflight 1,685,680 1,625 - 97 - 1 - 12 - 4 769 2022-04-23 08:17:13
66 Powerflux 3,429,450 3,980 - 90 - 4 - 8 - 2 1,218 2022-04-23 08:15:17
1,432 Powerflux 217,515 140 - 4 - 1 - 2 - 1 140 2022-04-23 08:11:41
75 brute force 1,553,995 1,504 - 91 - 2 - 4 - 5 703 2022-04-23 08:11:23
33 Apologize 2,101,860 1,868 - 92 - 2 - 3 - 1 1,050 2022-04-23 08:09:46
125 Apologize 15,500 10 - 0 - 0 - 0 - 0 10 2022-04-23 08:07:27
32 Apologize 1,912,055 1,895 - 63 - 2 - 5 - 4 854 2022-04-23 08:07:07
69 Apologize 1,471,565 1,220 - 28 - 1 - 7 - 1 795 2022-04-23 08:04:39
197 brute force 194,880 129 - 2 - 0 - 2 - 0 124 2022-04-23 08:03:18
305 Violent Arcade 1,248,115 1,147 - 13 - 0 - 1 - 0 614 2022-04-23 07:57:48
106 Mario-chi Survivor [Oni] 1,944,550 1,256 - 4 - 0 - 1 - 2 1,253 2022-04-23 07:56:01
295 Violent Arcade 1,853,750 1,269 - 10 - 0 - 3 - 1 1,154 2022-04-23 07:54:32
3,212 The Disappearance of Hatsune Miku -Theatrical Version- 810,185 518 - 7 - 0 - 2 - 1 524 2022-04-23 07:52:57
3,227 Heterochromia Iridis 146,665 94 - 1 - 0 - 1 - 0 95 2022-04-23 07:52:09
3,224 Heterochromia Iridis 148,250 94 - 2 - 0 - 0 - 0 96 2022-04-23 07:51:54
43 Upshift [1.1x] 1,920,140 2,124 - 15 - 1 - 4 - 0 749 2022-04-23 07:51:28
554 Throwin' Down 1,405,575 906 - 1 - 0 - 0 - 0 907 2022-04-22 09:43:24
561 Throwin' Down 1,342,025 865 - 1 - 0 - 0 - 0 866 2022-04-22 09:41:22
561 Throwin' Down 1,335,825 861 - 1 - 0 - 0 - 0 862 2022-04-22 09:32:49
568 Throwin' Down 1,254,740 811 - 0 - 0 - 1 - 0 809 2022-04-22 09:30:47
34 Throwin' Down [FC] [PB] 4,122,725 2,659 - 1 - 0 - 0 - 0 2,660 2022-04-22 09:26:33
568 Throwin' Down 1,255,840 813 - 0 - 0 - 1 - 0 809 2022-04-22 09:12:58
1 My So-Called Life [AAA] [FC] [PB] 3,954,050 2,551 - 0 - 0 - 0 - 0 2,551 2022-04-22 09:10:49
882 My So-Called Life 709,625 457 - 1 - 0 - 0 - 0 458 2022-04-22 09:06:37
727 My So-Called Life 1,777,025 1,144 - 3 - 0 - 0 - 0 1,147 2022-04-22 09:05:19
1 A White Cat Sings Lovely Jazz Waltz [AAA] [FC] [PB] 2,605,550 1,681 - 0 - 0 - 0 - 0 1,681 2022-04-22 09:03:01
576 A White Cat Sings Lovely Jazz Waltz 2,295,275 1,480 - 1 - 0 - 0 - 0 1,481 2022-04-22 08:57:41
4 toromi hearts 2 [SR] 3,645,215 2,592 - 7 - 0 - 1 - 0 2,218 2022-04-22 08:53:31
1 PhonDrome! [Heavy] [AAA] [FC] [PB] 2,731,100 1,762 - 0 - 0 - 0 - 0 1,762 2022-04-22 08:50:38
7 PhonDrome! [Heavy] 2,243,850 1,446 - 2 - 0 - 0 - 0 1,448 2022-04-22 08:47:10
7 PhonDrome! [Heavy] 2,078,815 1,344 - 1 - 0 - 2 - 2 1,340 2022-04-22 08:45:08
2 PhonDrome! [Heavy] [FC] [SR] 2,730,825 1,761 - 1 - 0 - 0 - 0 1,762 2022-04-22 08:43:02
89 Arianrhod [1.2x] [FC] 2,178,750 1,404 - 2 - 0 - 0 - 0 1,406 2022-04-22 08:40:14
1,271 Arianrhod [1.2x] 14,605 9 - 1 - 0 - 2 - 0 10 2022-04-22 08:38:32
1 Tribe Attacker v2 [AAA] [FC] [PB] 2,442,800 1,576 - 0 - 0 - 0 - 0 1,576 2022-04-20 11:55:02
41 Tribe Attacker v2 1,150,540 766 - 2 - 0 - 1 - 0 729 2022-04-20 11:53:11
1 R176 v2 [AAA] [FC] [SR] 2,123,500 1,370 - 0 - 0 - 0 - 0 1,370 2022-04-20 11:50:27
7,994 R176 420,595 731 - 71 - 20 - 176 - 176 56 2022-04-20 11:47:28
14,966 R176 13,315 23 - 2 - 1 - 18 - 18 6 2022-04-20 11:45:14
8,286 R176 532,745 679 - 127 - 34 - 158 - 176 175 2022-04-20 11:44:53
62 We Want To Run 2,348,020 2,705 - 85 - 1 - 10 - 3 840 2022-04-20 11:41:57
1,099 Staple on Smile 660,750 423 - 4 - 0 - 0 - 0 427 2022-04-20 11:37:41
40 High-Priestess 2,988,105 1,986 - 11 - 2 - 1 - 1 1,893 2022-04-20 11:36:22
346 Tool-Assisted Speedcore (TQBF Frame Advance RMX) 1,303,295 968 - 3 - 0 - 3 - 0 771 2022-04-20 11:33:54
24 Blackmagik Blazing [PB] 4,223,600 3,936 - 11 - 1 - 4 - 2 2,057 2022-04-20 11:31:34
34 Hello (BPM) 2021 [PB] 1,823,245 2,395 - 319 - 4 - 35 - 5 429 2022-04-20 11:25:41
52 Gamma Stop Sending Me High Quality Rips 3,882,890 3,546 - 130 - 12 - 12 - 5 1,900 2022-04-20 11:23:07
8 Resistance [Aero Chord] [FC] [PB] 3,553,600 2,291 - 2 - 0 - 0 - 0 2,293 2022-04-20 11:18:42
30 Apologize 1,748,000 1,903 - 54 - 0 - 8 - 1 689 2022-04-20 11:15:23
33 Critical.Error 2,814,130 3,115 - 76 - 2 - 13 - 5 1,084 2022-04-20 11:11:49
606 Powerflux 2,173,330 1,518 - 50 - 4 - 8 - 3 1,327 2022-04-20 11:07:47
35 brute force 2,370,970 3,019 - 223 - 9 - 36 - 7 660 2022-04-20 11:05:59
59 Exam Cram [Oni] [FC] 2,432,905 1,554 - 19 - 0 - 0 - 1 1,573 2022-04-20 11:02:33
330 Violent Arcade 910,430 808 - 6 - 0 - 2 - 0 465 2022-04-20 11:00:36
74 Mario-chi Survivor [Oni] 2,909,230 1,864 - 16 - 0 - 1 - 3 1,880 2022-04-20 10:59:32
133 The Disappearance of Hatsune Miku -Theatrical Version- 2,031,950 1,925 - 28 - 2 - 5 - 3 967 2022-04-20 10:56:58
38 The Games We Played [Full Version] [FC] [PB] 9,068,225 5,848 - 3 - 0 - 0 - 0 5,851 2022-04-20 10:51:26
692 The Games We Played [Full Version] [PB] 1,692,325 1,091 - 1 - 0 - 0 - 0 1,092 2022-04-20 10:33:37
871 The Games We Played [Full Version] 1,550 1 - 0 - 0 - 0 - 0 1 2022-04-20 10:30:25
871 The Games We Played [Full Version] 1,550 1 - 0 - 0 - 0 - 0 1 2022-04-20 10:30:17
871 The Games We Played [Full Version] 1,550 1 - 0 - 0 - 0 - 0 1 2022-04-20 10:30:07
870 The Games We Played [Full Version] 3,100 2 - 0 - 0 - 0 - 0 2 2022-04-20 10:29:58
869 The Games We Played [Full Version] 7,750 5 - 0 - 0 - 0 - 0 5 2022-04-20 10:29:47
871 The Games We Played [Full Version] 1,550 1 - 0 - 0 - 0 - 0 1 2022-04-20 10:29:27
43 Game Genie [SR] 6,509,715 4,701 - 9 - 0 - 1 - 0 3,922 2022-04-20 10:28:07
24 St. Scarhand [Heavy] [FC] [PB] 3,363,675 2,166 - 5 - 0 - 0 - 0 2,171 2022-04-20 10:19:37
27 Epidermis v2 [PB] 5,258,065 3,682 - 1 - 0 - 1 - 0 3,233 2022-04-20 10:15:32
1 Starbound [AAA] [FC] [SR] 14,599,450 9,419 - 0 - 0 - 0 - 0 9,419 2022-04-20 10:04:31
231 White Walls [Part 2] 1,864,165 1,341 - 17 - 4 - 4 - 2 1,123 2022-04-20 09:48:32
42 Breath After Breath 2,870,590 2,809 - 21 - 1 - 7 - 1 1,322 2022-04-20 09:45:27
43 Breath After Breath 3,272,640 2,411 - 16 - 0 - 9 - 1 1,945 2022-04-20 09:41:51
68 Breath After Breath 301,975 194 - 1 - 0 - 0 - 0 195 2022-04-20 09:39:25
74 Breath After Breath 49,600 32 - 0 - 0 - 0 - 0 32 2022-04-20 09:39:02
74 Breath After Breath 49,325 31 - 1 - 0 - 0 - 0 32 2022-04-20 09:38:46
74 Chaoz Japan v2 1,096,590 1,017 - 2 - 0 - 1 - 0 537 2022-04-20 09:38:07
55 Offset Packed 1,887,500 2,347 - 53 - 3 - 13 - 3 586 2022-04-17 13:14:42
103 OWA Raged at Kurorak for Making OWA Raged at Skeletor [1.05x] 2,370,300 2,102 - 26 - 0 - 3 - 1 1,208 2022-04-17 13:05:51
148 Jamais Vu [1.05x] 1,943,795 1,959 - 29 - 0 - 5 - 4 860 2022-04-17 13:03:05
168 Break The Silence [1.05x] 1,151,395 1,050 - 19 - 0 - 1 - 1 569 2022-04-17 13:00:37
155 Rave 7 [1.05x] 2,027,840 1,486 - 14 - 0 - 1 - 0 1,207 2022-04-17 12:59:25
110 to Luv me I *** for u. [1.1x] 2,574,115 2,365 - 115 - 6 - 21 - 4 1,248 2022-04-17 12:57:33
206 J'ai Envie de Plaisir X2 [1.1x] 1,865,085 1,629 - 21 - 0 - 2 - 1 964 2022-04-17 12:54:35
197 Schmollbluk [1.1x] [FC] 2,545,270 1,629 - 16 - 0 - 0 - 4 1,645 2022-04-17 12:52:23
51 Frictional Nevada v2 [1.1x] 2,268,550 1,797 - 9 - 1 - 1 - 1 1,278 2022-04-17 12:50:05
140 Canary Part V [1.1x] 1,784,720 1,838 - 10 - 0 - 3 - 0 772 2022-04-17 12:47:55
132 Pandora [1.1x] 950,815 946 - 4 - 1 - 2 - 1 430 2022-04-17 12:45:39
32 Rage Template [1.1x] [FC] 2,448,450 1,578 - 2 - 0 - 0 - 0 1,580 2022-04-17 12:43:18
368 Hello (BPM) 2021 597,620 441 - 58 - 0 - 6 - 1 341 2022-04-17 12:40:39
167 Gamma Stop Sending Me High Quality Rips 2,319,750 2,184 - 45 - 1 - 6 - 1 1,108 2022-04-17 12:39:56
483 Odd-22 1,610,720 1,035 - 16 - 0 - 3 - 0 1,038 2022-04-17 12:37:34
85 OWA Raged at Home Run Derby 1,172,375 1,105 - 21 - 2 - 4 - 1 560 2022-04-17 12:36:03
92 OWA Raged at Home Run Derby 436,755 281 - 3 - 0 - 2 - 0 282 2022-04-17 12:34:53
13 The Ever Increasing Death Toll of Birds In My Life 2,330,590 2,878 - 104 - 2 - 16 - 3 724 2022-04-17 12:31:47
50 Chik Habit v2 [1.1x] [FC] 3,388,100 2,176 - 12 - 0 - 0 - 0 2,188 2022-04-17 12:27:51
205 Winter Wind Etude [1.1x] 2,170,490 2,378 - 22 - 2 - 5 - 1 858 2022-04-17 12:25:05
205 La Campanella [1.1x] 2,665,565 2,849 - 28 - 1 - 10 - 2 1,094 2022-04-17 12:21:27
260 Lawn Wake II [1.2x] 1,551,000 1,549 - 24 - 2 - 2 - 2 693 2022-04-17 12:17:18
124 Unicron Barbeque [1.2x] 2,331,220 1,952 - 2 - 0 - 3 - 0 1,258 2022-04-17 12:15:06
209 Call me it. (500 Tortures) [1.1x] 2,698,365 2,146 - 72 - 3 - 6 - 2 1,500 2022-04-17 12:05:51
242 Extratone Pirates (Drunk Optimus Remix) [1.1x] 1,456,385 1,823 - 48 - 1 - 8 - 2 443 2022-04-17 12:03:28
204 A Quick Death [1.1x] 1,758,265 1,624 - 23 - 0 - 4 - 1 860 2022-04-17 12:01:20
80 [line:epsilon] [1.1x] 1,757,615 1,982 - 24 - 1 - 10 - 2 664 2022-04-17 11:58:31
51 Upshift [1.1x] 1,807,940 2,119 - 18 - 2 - 5 - 1 639 2022-04-17 11:55:58
122 Chronomia [1.1x] [FC] 3,367,925 2,098 - 91 - 0 - 0 - 0 2,189 2022-04-17 11:53:26
79 HeadXplit [1.1x] 2,505,765 2,417 - 75 - 4 - 11 - 1 1,159 2022-04-17 11:51:06
37 Lyrith -Labyrinth Lilith- [1.1x] [FC] 2,893,235 1,851 - 19 - 0 - 0 - 2 1,870 2022-04-17 11:48:30
63 Angelic Jelly [1.1x] 2,124,135 1,424 - 23 - 0 - 1 - 4 1,335 2022-04-17 11:46:05
37 STRANGEPROGRAM [1.1x] 3,209,505 3,201 - 32 - 1 - 6 - 2 1,442 2022-04-17 11:44:13
222 Necropotence [1.2x] [FC] 2,622,535 1,678 - 17 - 0 - 0 - 2 1,695 2022-04-17 11:40:45
303 A Kidney Stone [1.2x] 1,610,585 1,599 - 13 - 2 - 5 - 0 729 2022-04-17 11:38:34
382 Eclipse (Solar) [1.2x] 1,427,260 1,419 - 22 - 0 - 4 - 0 642 2022-04-17 11:36:36
57 do i smile? [1.05x] 2,622,485 2,105 - 5 - 0 - 2 - 1 1,464 2022-04-17 11:34:12
179 Heterochromia Iridis [1.05x] 2,523,185 1,940 - 35 - 4 - 2 - 2 1,447 2022-04-17 11:31:06
2,256 cold (Kurorak's Bootleg) 45,980 32 - 0 - 0 - 2 - 0 29 2022-04-17 11:28:58
1,811 cold (Kurorak's Bootleg) 232,225 149 - 1 - 0 - 0 - 0 150 2022-04-17 11:28:38
157 Resistance [Aero Chord] 870,505 556 - 6 - 1 - 0 - 0 563 2022-04-17 11:28:03
34 Apologize 1,821,130 1,871 - 80 - 4 - 10 - 2 773 2022-04-17 11:27:02
5 A Raw Understanding [PB] 4,611,945 3,679 - 3 - 0 - 1 - 1 2,588 2022-04-17 11:24:04
91 We Want To Run 2,978,400 2,633 - 86 - 6 - 15 - 4 1,511 2022-04-17 11:18:18
211 Blackmagik Blazing 1,829,690 1,177 - 6 - 0 - 1 - 0 1,181 2022-04-17 11:14:03
344 Tool-Assisted Speedcore (TQBF Frame Advance RMX) 1,455,165 963 - 4 - 1 - 2 - 1 925 2022-04-17 11:12:36
113 Adcar 1,226,315 798 - 1 - 0 - 6 - 0 789 2022-04-17 11:11:18
233 J-CORE SLi//CER Technique 1,068,765 695 - 3 - 0 - 1 - 0 686 2022-04-17 11:09:56
243 Happy Arnold=) 1,390,415 897 - 5 - 0 - 1 - 0 896 2022-04-17 11:08:49
271 Brrrreeed Cicadididi 350,025 225 - 1 - 0 - 0 - 0 226 2022-04-17 11:07:37
149 Gamma Stop Giving Me Hard Bags 960,440 625 - 0 - 0 - 1 - 0 617 2022-04-17 11:04:31
156 Gamma Stop Giving Me Hard Bags 579,150 372 - 2 - 0 - 0 - 0 374 2022-04-17 11:03:28
110 !!!Chaos Time!!! [Cut Edition] 1,792,580 1,678 - 20 - 2 - 3 - 0 865 2022-04-17 11:02:19
88 Offset Packed 337,320 278 - 10 - 0 - 1 - 1 182 2022-04-16 09:39:31
116 Offset Packed 84,660 56 - 4 - 0 - 4 - 0 54 2022-04-16 09:39:03
29 Symphonies Of Suckness [PB] 3,463,560 2,996 - 34 - 0 - 5 - 2 1,808 2022-04-16 09:38:07
274 Hello (BPM) 2021 602,900 647 - 151 - 3 - 18 - 3 211 2022-04-16 09:33:57
60 Gamma Stop Sending Me High Quality Rips 3,061,190 3,437 - 228 - 6 - 29 - 10 1,117 2022-04-16 09:33:01
187 That's Gonna Be 1,281,330 1,414 - 68 - 0 - 13 - 2 489 2022-04-16 09:29:01
4,858 Reluctantly Accepting Temporary Overexhaustion 1,109,530 947 - 19 - 3 - 5 - 8 585 2022-04-16 09:27:03
883 Crystal Chamber Combustion (bike) 328,265 305 - 73 - 2 - 15 - 1 145 2022-04-16 09:26:01
168 Ra Variationen 915,905 712 - 25 - 0 - 5 - 1 519 2022-04-16 09:25:22
372 We Want To Run 626,545 521 - 7 - 0 - 3 - 0 339 2022-04-16 09:23:46
310 Blackmagik Blazing 435,470 368 - 0 - 0 - 3 - 0 234 2022-04-16 09:22:25
318 Tool-Assisted Speedcore (TQBF Frame Advance RMX) 1,847,500 1,187 - 6 - 0 - 0 - 0 1,193 2022-04-16 09:21:28
425 Tool-Assisted Speedcore (TQBF Frame Advance RMX) 1,149,550 740 - 2 - 0 - 0 - 0 742 2022-04-16 09:19:40
633 Tool-Assisted Speedcore (TQBF Frame Advance RMX) 576,325 371 - 1 - 0 - 0 - 0 372 2022-04-16 09:18:29
37 Reparatus+Paradisus 3,919,740 2,516 - 14 - 2 - 0 - 1 2,532 2022-04-16 09:07:59
46 A Raw Understanding 2,613,960 1,680 - 7 - 1 - 0 - 1 1,688 2022-04-16 09:04:01
7 The Time Vampire [FC] [PB] 6,089,850 3,924 - 6 - 0 - 0 - 0 3,930 2022-04-16 08:57:33
68 The Time Vampire 55,525 35 - 1 - 0 - 0 - 0 36 2022-04-16 08:53:12
12 Black Chocolates [FC] [PB] 6,494,455 4,186 - 4 - 1 - 0 - 0 4,191 2022-04-16 08:52:43
77 Credits EX 399,920 258 - 1 - 1 - 1 - 0 258 2022-04-16 08:48:36
76 Credits EX 479,015 331 - 1 - 0 - 1 - 0 297 2022-04-16 08:47:33
7 Szycag [SR] 4,865,410 4,887 - 8 - 0 - 2 - 1 2,176 2022-04-16 08:45:32
9 Grief & Malice [FC] [PB] 4,974,435 3,207 - 2 - 1 - 0 - 1 3,210 2022-04-16 08:32:41
21 Grief & Malice [SR] 616,190 410 - 0 - 0 - 1 - 0 391 2022-04-16 08:28:36
65 Black Chocolates 608,015 390 - 3 - 0 - 1 - 0 393 2022-04-08 10:04:29
78 Black Chocolates 78,775 50 - 1 - 0 - 0 - 0 51 2022-04-08 10:04:02
65 Black Chocolates 559,000 359 - 2 - 0 - 0 - 0 361 2022-04-08 10:03:53
68 cafe terrace at dusk 348,475 224 - 1 - 0 - 0 - 0 225 2022-04-08 10:03:12
1 hurricanic [AAA] [FC] [PB] 3,532,450 2,279 - 0 - 0 - 0 - 0 2,279 2022-04-08 10:02:44
21 FACTORY_RESET [FC] 2,109,725 1,357 - 5 - 0 - 0 - 0 1,362 2022-04-08 09:59:16
73 Credits EX 401,240 261 - 0 - 0 - 1 - 0 258 2022-04-08 09:57:39
77 one of none 393,130 252 - 2 - 0 - 0 - 1 254 2022-04-08 09:56:38
81 one of none 201,225 129 - 1 - 0 - 0 - 0 130 2022-04-08 09:56:01
81 one of none 280,275 180 - 1 - 0 - 0 - 0 181 2022-04-08 09:55:35
1 You Don't Know [AAA] [FC] [PB] 3,704,500 2,390 - 0 - 0 - 0 - 0 2,390 2022-04-08 09:53:34
15 Tribe Attacker v2 [FC] 2,442,230 1,574 - 2 - 0 - 0 - 1 1,576 2022-04-08 09:50:28
35 Tribe Attacker v2 1,013,590 658 - 0 - 0 - 1 - 0 652 2022-04-08 09:48:19
37 Tribe Attacker v2 840,140 559 - 0 - 0 - 1 - 0 533 2022-04-08 09:47:16
40 Tribe Attacker v2 505,005 325 - 1 - 0 - 0 - 1 326 2022-04-08 09:46:33
1 wholeheartedly [AAA] [FC] [PB] 1,966,950 1,269 - 0 - 0 - 0 - 0 1,269 2022-04-08 09:44:40
10 wholeheartedly [SR] 57,350 37 - 0 - 0 - 0 - 0 37 2022-04-08 09:42:17
11 Cybernaut 2 Opening Theme [1.4x] [FC] 1,241,275 800 - 1 - 0 - 0 - 0 801 2022-04-08 09:41:52
1 Cybernaut 2 Opening Theme [AAA] [FC] [PB] 1,241,550 801 - 0 - 0 - 0 - 0 801 2022-04-08 09:40:08
11 Cybernaut 2 Opening Theme [SR] 96,990 66 - 0 - 0 - 1 - 0 61 2022-04-08 09:38:37
11 Angelic Jelly [FC] [PB] 2,243,830 1,446 - 2 - 0 - 0 - 1 1,448 2022-04-07 17:29:50
1 Xanthystrauma [AAA] [FC] [PB] 3,053,500 1,970 - 0 - 0 - 0 - 0 1,970 2022-04-07 17:27:14
1,776 Xanthystrauma 48,050 31 - 0 - 0 - 0 - 0 31 2022-04-07 17:23:54
67 Paraclete [Oni] [FC] [PB] 2,772,400 1,787 - 2 - 0 - 0 - 0 1,789 2022-04-07 17:23:21
990 Paraclete [Oni] 414,040 297 - 0 - 0 - 1 - 0 251 2022-04-07 17:20:24
312 Violent Arcade 1,579,250 1,009 - 12 - 0 - 0 - 0 1,021 2022-04-06 20:56:50
52 Hyper Weaboo Vodka Shots 2,927,840 2,061 - 25 - 1 - 2 - 1 1,788 2022-04-06 20:55:30
46 You Show 2,224,205 1,796 - 30 - 1 - 6 - 2 1,230 2022-04-06 20:53:25
119 You Show 479,290 311 - 2 - 0 - 1 - 0 308 2022-04-06 20:51:15
32 The Bridgeport Run [FC] 4,170,590 2,681 - 11 - 1 - 0 - 2 2,693 2022-04-06 20:48:14
48 Sinthasomphone 2,006,500 1,883 - 33 - 1 - 4 - 2 963 2022-04-06 20:44:12
69 We Want To Run 2,237,915 2,669 - 108 - 5 - 19 - 6 746 2022-04-06 20:41:24
3 Robotomy [FC] 6,381,855 4,115 - 2 - 1 - 0 - 0 4,118 2022-04-06 20:36:12
303 High-Priestess 1,064,225 689 - 2 - 1 - 1 - 1 685 2022-04-06 20:30:01
138 Blackmagik Blazing 3,228,880 3,029 - 39 - 5 - 3 - 7 1,553 2022-04-06 20:28:50
13 Tool-Assisted Speedcore (TQBF Frame Advance RMX) 4,350,265 3,540 - 7 - 0 - 2 - 2 2,402 2022-04-06 20:24:53
17 Finding Her Not 3,252,115 3,032 - 3 - 0 - 1 - 0 1,584 2022-04-06 20:20:06
49 OWA Raged at Kurorak for Making OWA Raged at Skeletor 2,435,520 2,124 - 6 - 0 - 1 - 1 1,266 2022-04-06 20:16:28
18 Six Acid Strings [FC] 2,838,500 1,828 - 4 - 0 - 0 - 0 1,832 2022-04-06 20:13:31
277 Six Acid Strings 775,945 503 - 2 - 1 - 1 - 0 499 2022-04-06 20:11:05
356 Six Acid Strings 345,100 221 - 2 - 0 - 0 - 0 223 2022-04-06 20:10:25
23 Music -corrupted mix- [FC] 2,632,350 1,695 - 4 - 0 - 0 - 0 1,699 2022-04-06 20:09:48
1,006 Music -corrupted mix- 497,595 326 - 3 - 0 - 21 - 1 324 2022-04-06 20:07:55
68 Radiata (The Quick Brown Fox 'UV' RMX) 1,794,925 1,451 - 11 - 2 - 4 - 1 995 2022-04-06 20:07:12
7 While Sleeping (The Big Sleep) [FC] 3,297,555 2,125 - 3 - 0 - 0 - 1 2,128 2022-04-06 20:05:15
28 J-CORE SLi//CER Technique 2,990,785 2,308 - 11 - 0 - 2 - 1 1,719 2022-04-06 20:02:13
18 where is my balls 3,473,765 2,454 - 5 - 0 - 1 - 0 2,123 2022-04-06 19:59:32
1,760 where is my balls 562,140 447 - 2 - 0 - 4 - 1 317 2022-04-06 19:56:35
2,176 where is my balls 457,140 298 - 2 - 0 - 1 - 0 293 2022-04-06 19:53:57
27 oppIrish (GYPSYCOREremix) 4,022,615 3,001 - 5 - 0 - 1 - 0 2,371 2022-04-06 19:53:05
30 Happy Arnold=) 2,239,970 2,292 - 12 - 0 - 3 - 0 977 2022-04-06 19:49:31
10 The Bird's Snapshot Lifespan [FC] 3,217,250 2,074 - 2 - 0 - 0 - 0 2,076 2022-04-06 19:46:02
31 Brrrreeed Cicadididi 2,831,025 2,636 - 13 - 0 - 1 - 2 1,378 2022-04-06 19:41:51
21 PhonDrome! [Oni] 1,922,480 1,800 - 4 - 0 - 2 - 0 932 2022-04-06 19:38:39
318 PhonDrome! [Oni] 810,940 531 - 9 - 1 - 2 - 1 517 2022-04-06 19:36:12
10 Break The Silence [FC] 4,823,910 3,104 - 10 - 0 - 0 - 2 3,114 2022-04-06 19:35:02
264 Break The Silence 528,965 339 - 3 - 0 - 1 - 0 342 2022-04-06 19:31:54
4 gigadelic 2,743,000 1,912 - 10 - 0 - 1 - 2 1,689 2022-04-06 19:30:38
98 gigadelic 6,200 4 - 0 - 0 - 0 - 0 4 2022-04-06 19:28:27
103 The Disappearance of Hatsune Miku -Theatrical Version- 2,985,760 1,938 - 20 - 0 - 2 - 1 1,915 2022-04-06 19:27:38
156 Resistance [Aero Chord] 883,400 567 - 3 - 1 - 1 - 1 571 2022-04-06 19:25:20
302 Eclipse (Solar) [1.2x] [FC] 2,235,075 1,428 - 17 - 0 - 0 - 0 1,445 2022-04-06 19:24:07
20,904 Eclipse (Solar) [1.2x] 112,875 72 - 1 - 0 - 0 - 0 73 2022-04-06 19:22:29
48 STRANGEPROGRAM [1.2x] 3,001,100 3,127 - 102 - 2 - 9 - 6 1,256 2022-04-06 19:21:23
36 KlungKung 2004 v2 [1.2x] 3,498,665 2,738 - 11 - 2 - 1 - 3 1,990 2022-04-06 19:17:59
519 Nomina Nuda Tenemus [Heavy] [1.2x] 919,610 965 - 20 - 0 - 2 - 1 384 2022-04-06 19:15:17
183 Chaoz Japan v2 [1.2x] 1,485,660 1,002 - 15 - 1 - 2 - 0 931 2022-04-06 19:12:09
1 Inaba-chan Night Fever ~ Kanon-Kanon [1.2x] [AAA] [FC] 1,832,100 1,182 - 0 - 0 - 0 - 0 1,182 2022-04-06 19:10:24
54 Dendrite v2 [1.2x] [FC] 2,013,175 1,298 - 1 - 0 - 0 - 0 1,299 2022-04-06 19:07:47
156 PianoCore [1.2x] 1,224,640 1,126 - 6 - 0 - 1 - 0 604 2022-04-06 19:05:42
33 Bedtime Story [1.2x] [FC] 3,488,480 2,249 - 2 - 0 - 0 - 1 2,251 2022-04-06 19:01:27
34 Gerudo Valley [1.2x] [FC] 2,406,325 1,550 - 3 - 0 - 0 - 0 1,553 2022-04-06 18:58:22
292 B.B. - Revenge - [1.2x] 2,869,300 2,371 - 8 - 0 - 3 - 1 1,564 2022-04-06 18:55:50
158 OTAKU SPEEDVIBE [Oni] [1.2x] [FC] 2,163,505 1,395 - 1 - 0 - 0 - 1 1,396 2022-04-06 18:52:05
1 Marisa Stole the Precious Thing [1.2x] [AAA] [FC] 1,861,550 1,201 - 0 - 0 - 0 - 0 1,201 2022-04-06 18:49:43
1 Kick Your A [1.2x] [AAA] [FC] 1,608,900 1,038 - 0 - 0 - 0 - 0 1,038 2022-04-06 18:43:13
463 WE EAT AT FIVE FIVE FIVE (guys) [1.2x] 1,179,840 1,085 - 10 - 0 - 2 - 2 581 2022-04-06 18:40:17
171 Big Blue [1.2x] [FC] 2,122,675 1,367 - 3 - 0 - 0 - 0 1,370 2022-04-06 18:38:51
2,206 Megalovania [1.2x] 901,230 604 - 6 - 0 - 2 - 0 568 2022-04-06 18:36:09
230 Colibri [1.2x] 1,651,665 1,352 - 5 - 0 - 1 - 0 907 2022-04-06 18:35:03
332 Gravity Blast [1.2x] 1,902,345 1,918 - 5 - 0 - 3 - 0 847 2022-04-06 18:33:04
4,766 Nebula [she] [1.2x] 34,100 22 - 0 - 0 - 0 - 0 22 2022-04-06 18:30:02
127 Carol of the Bells [1.2x] [FC] 2,172,550 1,400 - 2 - 0 - 0 - 0 1,402 2022-04-06 18:29:12
1 Four Blocks Madness [1.2x] [AAA] [FC] 1,878,600 1,212 - 0 - 0 - 0 - 0 1,212 2022-04-06 18:26:30
1 Cosmic Orchestra [1.2x] [AAA] [FC] 2,464,500 1,590 - 0 - 0 - 0 - 0 1,590 2022-04-06 18:24:43
46 Bad Apple!! [1.2x] [FC] 2,278,225 1,469 - 1 - 0 - 0 - 0 1,470 2022-04-06 18:22:00
234 Melonman's OP [1.2x] [FC] 1,854,525 1,194 - 3 - 0 - 0 - 0 1,197 2022-04-06 18:19:00
643 Melonman's OP [1.2x] 82,150 53 - 0 - 0 - 0 - 0 53 2022-04-06 18:16:08
115 V1 v2 [1.2x] 977,965 636 - 4 - 1 - 3 - 3 628 2022-04-06 18:13:57
122 V1 v2 [1.2x] 12,400 8 - 0 - 0 - 0 - 0 8 2022-04-06 18:11:13
1,735 Gaussian Blur 2 [1.2x] 827,330 727 - 4 - 0 - 2 - 0 427 2022-04-06 18:07:44
1,634 OTAKU SPEEDVIBE [Heavy] [1.2x] 531,650 343 - 0 - 0 - 0 - 0 343 2022-04-06 18:05:03
24,040 Uber Rave [1.2x] 671,150 433 - 0 - 0 - 0 - 0 433 2022-04-06 18:03:12
33,886 Uber Rave 31,000 20 - 0 - 0 - 0 - 0 20 2022-04-06 18:02:06
430 UNknown Girl [1.2x] [FC] 1,964,850 1,266 - 2 - 0 - 0 - 0 1,268 2022-04-06 16:09:51
340 Cold Breath [1.2x] [FC] 1,340,455 864 - 1 - 0 - 0 - 1 865 2022-04-06 16:07:52
507 Color of Giggles [1.2x] 1,163,990 826 - 0 - 0 - 1 - 0 710 2022-04-06 16:05:41
361 IDOL (Danpa with Posing Guys ver.) [1.2x] 1,512,370 1,014 - 0 - 0 - 1 - 1 955 2022-04-06 16:03:37
255 World Sound [1.2x] [FC] 1,517,175 978 - 1 - 0 - 0 - 0 979 2022-04-06 16:01:36
171 May The Triforce Be With You [1.2x] [FC] 1,986,550 1,280 - 2 - 0 - 0 - 0 1,282 2022-04-06 15:59:10
99 Gruntilda's Final Battle [1.2x] [FC] 2,283,875 1,471 - 3 - 0 - 0 - 0 1,474 2022-04-06 15:57:22
1 Fighting For Control [1.2x] [AAA] [FC] 1,691,050 1,091 - 0 - 0 - 0 - 0 1,091 2022-04-06 15:54:24
1 The Final Conflict [1.2x] [AAA] [FC] 1,635,250 1,055 - 0 - 0 - 0 - 0 1,055 2022-04-06 15:52:46
1 Border of Maximum [1.2x] [AAA] [FC] 1,718,950 1,109 - 0 - 0 - 0 - 0 1,109 2022-04-06 15:50:50
5,559 the Casket of Star [1.2x] 656,780 428 - 0 - 0 - 2 - 0 422 2022-04-06 15:48:36
347 FF7 Battle [1.2x] [FC] 1,520,760 978 - 3 - 1 - 0 - 1 982 2022-04-06 15:47:47
570 Final Fantasy 3 Boss [1.3x] [FC] 1,210,275 780 - 1 - 0 - 0 - 0 781 2022-04-06 15:45:27
190 Lyrith -Labyrinth Lilith- 1,479,250 1,301 - 6 - 0 - 3 - 1 763 2022-04-05 10:35:29
288 Lyrith -Labyrinth Lilith- 294,950 187 - 4 - 0 - 0 - 0 191 2022-04-05 10:33:29
331 Lyrith -Labyrinth Lilith- 7,750 5 - 0 - 0 - 0 - 0 5 2022-04-05 10:32:58
209 Death Piano 2,057,680 2,377 - 58 - 0 - 18 - 2 740 2022-04-05 10:21:18
148 Reluctantly Accepting Temporary Overexhaustion 1,446,910 1,544 - 52 - 2 - 2 - 4 584 2022-04-05 10:16:42
119 Finding Her Not 1,737,895 1,433 - 9 - 4 - 3 - 1 948 2022-04-05 10:13:14
142 Metro 1,613,880 1,033 - 10 - 0 - 0 - 1 1,043 2022-04-05 10:11:06
2,101 Fushigi Usagi Milk Tei 907,065 601 - 3 - 0 - 1 - 0 576 2022-04-05 10:09:24
7 Rengoku-Purgatorium- v2 [FC] 3,505,725 2,256 - 7 - 0 - 0 - 0 2,263 2022-04-05 10:06:01
17 /a/ [FC] 3,243,580 2,091 - 2 - 0 - 0 - 1 2,093 2022-04-05 10:03:24
73 /a/ 347,650 221 - 4 - 0 - 0 - 0 225 2022-04-05 10:00:53
73 /a/ 661,820 431 - 4 - 0 - 1 - 1 424 2022-04-05 10:00:07
46 Heterochromia Iridis v2 [FC] 2,858,650 1,841 - 4 - 0 - 0 - 0 1,845 2022-04-05 09:58:55
111 Heterochromia Iridis v2 844,265 546 - 1 - 0 - 1 - 0 544 2022-04-05 09:56:46
1 Magical 8bit Tour v2 [AAA] [FC] 2,586,950 1,669 - 0 - 0 - 0 - 0 1,669 2022-04-05 09:55:55
1 The Bird's Concrete Nosedive [AAA] [FC] 1,805,750 1,165 - 0 - 0 - 0 - 0 1,165 2022-04-05 09:53:12
41 Rudi the Techno Pioneer 2,360,170 1,630 - 0 - 0 - 1 - 1 1,464 2022-04-05 09:50:20
18 Mario Trap 1,422,390 1,112 - 4 - 0 - 1 - 0 810 2022-04-05 09:46:58
23 Mario Trap [FC] 1,727,460 1,103 - 14 - 0 - 0 - 2 1,117 2022-04-05 09:45:30
52 Fractured Sunshine [FC] 2,852,900 1,834 - 8 - 0 - 0 - 0 1,842 2022-04-05 09:43:41
310 Fractured Sunshine 174,875 112 - 1 - 0 - 0 - 0 113 2022-04-05 09:41:21
1 FREEDOM DiVE [AAA] [FC] 3,496,800 2,256 - 0 - 0 - 0 - 0 2,256 2022-04-05 09:39:48
28 Tell v3 (Extended Mix) 2,192,615 1,441 - 5 - 0 - 1 - 0 1,399 2022-04-05 09:36:59
274 Tell v3 (Extended Mix) 54,930 36 - 10 - 0 - 2 - 0 33 2022-04-05 09:33:50
279 Tell v3 (Extended Mix) 4,650 3 - 0 - 0 - 0 - 0 3 2022-04-05 09:33:38
264 Tell v3 (Extended Mix) 215,780 166 - 4 - 0 - 2 - 0 124 2022-04-05 09:33:31
276 Tell v3 (Extended Mix) 60,830 37 - 4 - 0 - 2 - 0 40 2022-04-05 09:32:55
55 Slashmaid (instrumental) [FC] 3,865,835 2,490 - 5 - 0 - 0 - 2 2,495 2022-04-05 09:31:43
8 Rationalist [FC] 3,282,330 2,116 - 2 - 0 - 0 - 1 2,118 2022-04-05 09:28:30
107 Resistance [Aero Chord] 2,186,420 1,423 - 4 - 0 - 1 - 1 1,403 2022-04-05 09:23:42
23 AiAe [FC] 3,898,975 2,513 - 3 - 0 - 0 - 0 2,516 2022-04-05 09:21:18
14 blueish cider [FC] 2,552,025 1,644 - 3 - 0 - 0 - 0 1,647 2022-04-05 09:18:31
13 Tribe Attacker v2 [FC] 2,442,250 1,574 - 2 - 0 - 0 - 0 1,576 2022-04-05 09:13:35
15 Kreutzer [FC] 3,737,500 2,408 - 4 - 0 - 0 - 0 2,412 2022-04-05 09:11:41
14 Change Yourself [Heavy] [FC] 2,383,625 1,537 - 1 - 0 - 0 - 0 1,538 2022-04-05 09:05:08
83 Gamma Stop Giving Me Hard Bags 5,871,080 3,797 - 17 - 1 - 16 - 2 3,783 2022-04-05 09:02:12
104 Gamma Stop Giving Me Hard Bags 3,333,065 2,706 - 6 - 1 - 6 - 4 1,845 2022-04-05 08:57:34
186 Gamma Stop Giving Me Hard Bags 71,300 46 - 0 - 0 - 0 - 0 46 2022-04-05 08:54:09
20 Pictured as Perfect 2,634,055 2,107 - 3 - 0 - 2 - 0 1,475 2022-04-05 08:51:01
35 You're gonna love my nuts [FC] 5,505,225 3,546 - 7 - 0 - 0 - 0 3,553 2022-04-05 08:48:08
172 !!!Chaos Time!!! [Cut Edition] 2,204,115 1,566 - 9 - 0 - 2 - 2 1,341 2022-04-05 08:43:04
12 Credits EX [FC] 4,482,950 2,884 - 10 - 0 - 0 - 0 2,894 2022-04-05 08:40:55
71 Credits EX 569,410 370 - 2 - 0 - 2 - 1 366 2022-04-05 08:34:56
16 Cest What [FC] 2,411,250 1,554 - 2 - 0 - 0 - 0 1,556 2022-04-05 08:33:41
324 Cest What 643,040 417 - 0 - 0 - 1 - 0 414 2022-04-05 08:31:33
309 Cest What 947,040 617 - 1 - 1 - 2 - 1 608 2022-04-05 08:30:51
12 Chaos [schmutz06] [FC] 1,921,450 1,238 - 2 - 0 - 0 - 0 1,240 2022-04-05 08:29:32
412 Chaos [schmutz06] 12,400 8 - 0 - 0 - 0 - 0 8 2022-04-05 08:27:26
23 Forgotten [FC] 3,387,750 2,184 - 2 - 0 - 0 - 0 2,186 2022-04-05 08:27:01
23 The Glorious (Final Sketch Remix) 2,578,150 1,970 - 0 - 0 - 1 - 2 1,495 2022-04-05 08:21:34
16 [line:theta] [FC] 2,535,525 1,635 - 1 - 0 - 0 - 0 1,636 2022-04-05 08:18:43
1 Divinity Garden [AAA] [FC] 2,833,400 1,828 - 0 - 0 - 0 - 0 1,828 2022-04-05 08:14:03
1 Husikam Rave Dojo [AAA] [FC] 3,310,800 2,136 - 0 - 0 - 0 - 0 2,136 2022-04-05 08:11:15
18 A small journey that starts from a morning glow 1,986,090 1,666 - 4 - 0 - 1 - 0 1,069 2022-04-05 08:02:42
287 A small journey that starts from a morning glow 1,022,065 659 - 7 - 0 - 1 - 0 658 2022-04-05 08:00:38
15 Nisemono [Cut] [FC] 4,556,175 2,937 - 3 - 0 - 0 - 0 2,940 2022-04-05 07:56:36
11 cafe terrace at dusk [FC] 1,925,275 1,238 - 5 - 0 - 0 - 0 1,243 2022-04-05 07:52:43
39 No Time For Sleep 705,815 605 - 5 - 0 - 1 - 0 372 2022-04-05 07:50:27
9 Take 2,127,570 1,717 - 2 - 0 - 1 - 1 1,183 2022-04-05 07:49:03
7 Epidermis v3 [FC] 4,401,450 2,838 - 2 - 0 - 0 - 0 2,840 2022-04-05 07:46:14
196 Epidermis v3 15,500 10 - 0 - 0 - 0 - 0 10 2022-04-05 07:42:14
196 Epidermis v3 6,200 4 - 0 - 0 - 0 - 0 4 2022-04-05 07:41:59
196 Epidermis v3 7,750 5 - 0 - 0 - 0 - 0 5 2022-04-05 07:41:49
196 Epidermis v3 12,400 8 - 0 - 0 - 0 - 0 8 2022-04-05 07:41:38
13 The Beast [FC] 2,270,200 1,463 - 2 - 0 - 0 - 0 1,465 2022-04-05 07:35:45
19 Catalinesie 2,028,965 1,579 - 3 - 0 - 1 - 0 1,160 2022-04-05 07:33:19
32 Vortex [FC] 3,142,025 2,023 - 5 - 0 - 0 - 0 2,028 2022-04-05 07:30:11
1,401 Vortex 85,250 55 - 0 - 0 - 0 - 0 55 2022-04-05 07:25:56
38 Herbie Goes Ballistic 5,915,310 4,028 - 2 - 0 - 2 - 1 3,700 2022-04-05 07:24:37
240 Once Upon a Time in Transylvania 1,283,125 827 - 1 - 0 - 0 - 0 828 2022-04-05 07:19:15
338 Once Upon a Time in Transylvania 481,520 310 - 1 - 1 - 1 - 0 311 2022-04-05 07:17:55
301 Once Upon a Time in Transylvania 779,440 505 - 0 - 0 - 1 - 0 502 2022-04-05 07:17:11
20 BarGain [1.1x] 2,915,445 1,949 - 3 - 0 - 1 - 1 1,843 2022-04-05 07:15:59
235 Amen Iraq [1.2x] 2,008,595 1,673 - 5 - 0 - 3 - 0 1,088 2022-04-05 07:13:28
72 Monstercat Live Performance (3 Year Anniversary Mix) 1,674,665 1,433 - 3 - 0 - 1 - 0 886 2022-04-05 07:10:32
904 Monstercat Live Performance (3 Year Anniversary Mix) 6,200 4 - 0 - 0 - 0 - 0 4 2022-04-05 07:07:15
49 A Raw Understanding 2,162,395 1,522 - 3 - 2 - 2 - 1 1,325 2022-04-04 10:09:47
48 Xanthystrauma 2,550,230 1,966 - 2 - 0 - 2 - 0 1,469 2022-04-04 10:06:56
1,821 Xanthystrauma 1,550 1 - 0 - 0 - 0 - 0 1 2022-04-04 10:03:36
1,793 Xanthystrauma 27,900 18 - 0 - 0 - 0 - 0 18 2022-04-04 10:03:30
1 Capoeira Sundance [AAA] [FC] 2,139,000 1,380 - 0 - 0 - 0 - 0 1,380 2022-04-04 10:03:04
610 A White Cat Sings Lovely Jazz Waltz 2,199,175 1,418 - 1 - 0 - 0 - 0 1,419 2022-04-04 09:59:55
927 A White Cat Sings Lovely Jazz Waltz 163,645 106 - 1 - 0 - 3 - 0 106 2022-04-04 09:57:17
695 A White Cat Sings Lovely Jazz Waltz 1,603,975 1,034 - 1 - 0 - 0 - 0 1,035 2022-04-04 09:53:59
673 A White Cat Sings Lovely Jazz Waltz 1,833,375 1,182 - 1 - 0 - 0 - 0 1,183 2022-04-04 09:51:51
267 Car Sax [1.2x] 1,618,940 1,070 - 10 - 0 - 1 - 0 1,028 2022-04-04 09:48:15
42 Tell Me A Story [Prolixity Mix] [1.2x] 1,871,645 1,333 - 3 - 0 - 1 - 1 1,138 2022-04-04 09:46:13
470 Exciting Hyper Highspeed Star [1.2x] [FC] 2,071,525 1,334 - 3 - 0 - 0 - 0 1,337 2022-04-04 09:44:00
197 Nous [1.2x] 2,250,290 1,571 - 2 - 0 - 1 - 0 1,386 2022-04-04 09:42:20
310 Destination Of The Heart [1.2x] 1,519,290 991 - 2 - 0 - 1 - 0 974 2022-04-04 09:39:29
565 Ambient Angels [1.2x] 1,863,540 1,270 - 2 - 2 - 2 - 0 1,165 2022-04-04 09:37:47
1,336 Vertex BETA [1.2x] 1,817,370 1,740 - 12 - 0 - 3 - 0 858 2022-04-04 09:35:12
1 Get Down [1.2x] [AAA] [FC] 1,784,050 1,151 - 0 - 0 - 0 - 0 1,151 2022-04-04 09:32:20
155 Falcon Punch [1.2x] [FC] 1,678,100 1,081 - 2 - 0 - 0 - 0 1,083 2022-04-04 09:30:12
300 Hello (BPM) 2021 490,945 498 - 96 - 1 - 11 - 0 194 2022-04-02 14:57:40
20 The Ever Increasing Death Toll of Birds In My Life 2,488,670 2,638 - 111 - 3 - 6 - 3 1,009 2022-04-02 14:54:02
53 OWA Raged at Home Run Derby 3,192,750 3,016 - 45 - 3 - 5 - 2 1,523 2022-04-02 14:51:02
40 Zen'on 2,266,400 1,746 - 33 - 1 - 3 - 5 1,298 2022-04-02 14:47:21
180 brute force 228,750 185 - 2 - 0 - 5 - 0 128 2022-04-02 14:44:40
1,274 Powerflux 337,800 213 - 6 - 0 - 0 - 0 219 2022-04-02 14:43:44
855 You Universe 915,290 832 - 34 - 0 - 2 - 2 449 2022-04-02 14:43:03
330 Violent Arcade 900,575 791 - 16 - 1 - 3 - 0 462 2022-04-02 14:42:00
591 Violent Arcade 72,850 47 - 0 - 0 - 0 - 0 47 2022-04-02 14:41:00
234 Mario-chi Survivor [Oni] 29,590 16 - 4 - 0 - 1 - 0 20 2022-04-02 14:40:41
234 Mario-chi Survivor [Oni] 30,725 19 - 1 - 0 - 0 - 0 20 2022-04-02 14:40:29
234 Mario-chi Survivor [Oni] 31,035 20 - 1 - 0 - 4 - 0 21 2022-04-02 14:39:52
139 Mario-chi Survivor [Oni] 764,490 495 - 2 - 0 - 1 - 0 492 2022-04-02 14:36:19
40 You Show 1,739,465 1,810 - 19 - 0 - 4 - 1 740 2022-04-02 14:35:27
119 You Show 477,860 309 - 2 - 0 - 2 - 1 308 2022-04-02 14:33:29
128 You Show 352,850 226 - 2 - 0 - 0 - 0 228 2022-04-02 14:33:06
154 You Show 115,700 73 - 2 - 0 - 0 - 0 75 2022-04-02 14:32:52
36 Exam Cram [Oni] [FC] 2,436,280 1,567 - 5 - 1 - 0 - 0 1,573 2022-04-02 14:32:35
112 Rave 7 2,029,765 1,493 - 7 - 0 - 1 - 0 1,207 2022-04-02 14:30:17
93 Odd-22 2,529,845 2,214 - 33 - 6 - 4 - 1 1,304 2022-04-02 14:28:23
190 Reluctantly Accepting Temporary Overexhaustion 1,705,870 1,510 - 86 - 0 - 4 - 2 853 2022-04-02 14:25:42
44 Sinthasomphone 1,985,260 1,889 - 29 - 1 - 2 - 5 939 2022-04-02 14:23:49
30 Blackmagik Blazing 3,340,455 3,907 - 38 - 1 - 6 - 2 1,183 2022-04-02 14:21:28
399 Blackmagik Blazing 210,905 134 - 3 - 0 - 2 - 0 137 2022-04-02 14:17:02
918 Staple on Smile 826,230 664 - 6 - 0 - 2 - 0 460 2022-04-02 14:16:37
1,511 Staple on Smile 112,875 72 - 1 - 0 - 0 - 0 73 2022-04-02 14:15:56
116 Adcar 844,245 697 - 3 - 0 - 3 - 0 461 2022-04-02 14:15:44
39 High-Priestess 2,806,665 1,985 - 13 - 0 - 2 - 2 1,712 2022-04-02 14:14:36
24 Tool-Assisted Speedcore (TQBF Frame Advance RMX) 4,340,465 3,519 - 25 - 2 - 3 - 2 2,399 2022-04-02 14:12:04
31 VIS::CRACKED 2,214,685 2,541 - 5 - 0 - 4 - 0 817 2022-04-02 14:07:26
30 Finding Her Not 3,229,330 3,019 - 14 - 0 - 3 - 2 1,566 2022-04-02 14:04:13
175 Finding Her Not 193,165 125 - 1 - 0 - 6 - 0 126 2022-04-02 14:00:53
58 Radiata (The Quick Brown Fox 'UV' RMX) 2,524,095 1,945 - 27 - 4 - 4 - 3 1,448 2022-04-02 14:00:30
69 System Doctor 2,511,475 2,070 - 7 - 0 - 3 - 1 1,372 2022-04-02 13:56:03
49 OWA Raged In Vegas (Fuck Bees) [FC] 4,678,975 3,008 - 13 - 0 - 0 - 0 3,021 2022-04-02 13:52:09
49 Six Acid Strings 1,689,740 1,820 - 7 - 1 - 4 - 0 688 2022-04-02 13:47:47
66 OWA Raged at Kurorak for Making OWA Raged at Skeletor 2,867,850 2,118 - 12 - 0 - 1 - 2 1,700 2022-04-02 13:44:53
49 Make the Fire Burn 2,928,700 2,658 - 10 - 0 - 3 - 1 1,465 2022-04-02 13:41:38
4 do i smile? [FC] 3,273,325 2,111 - 1 - 0 - 0 - 0 2,112 2022-04-02 13:35:56
128 The Disappearance of Hatsune Miku -Theatrical Version- 2,539,880 1,923 - 32 - 0 - 5 - 1 1,475 2022-04-02 13:32:33
96 Heterochromia Iridis [FC] 3,066,700 1,967 - 14 - 0 - 0 - 0 1,981 2022-04-02 13:30:05
3,207 Heterochromia Iridis 154,450 98 - 2 - 0 - 0 - 0 100 2022-04-02 13:28:00
87 Fushigi Usagi Milk Tei [FC] 2,765,430 1,771 - 16 - 0 - 0 - 1 1,787 2022-04-02 13:27:39
30 J-CORE SLi//CER Technique 2,703,705 2,304 - 15 - 0 - 2 - 0 1,433 2022-04-02 13:24:53
10 Break The Silence 4,638,695 3,106 - 6 - 1 - 1 - 0 2,929 2022-04-02 13:21:25
60 where is my balls 3,170,870 2,435 - 20 - 2 - 3 - 3 1,827 2022-04-02 13:18:09
78 Jamais Vu 2,808,310 1,987 - 4 - 0 - 2 - 1 1,715 2022-04-02 13:15:00
97 Magical 8bit Tour 2,030,355 1,869 - 5 - 0 - 3 - 2 1,002 2022-04-02 13:12:17
55 Call me it. (500 Tortures) 2,508,340 2,220 - 6 - 0 - 1 - 0 1,286 2022-04-02 13:09:16
95 Extratone Pirates (Drunk Optimus Remix) 1,949,180 1,869 - 8 - 0 - 3 - 2 920 2022-04-02 13:06:37
22 Resistance [Aero Chord] 2,493,795 2,283 - 9 - 0 - 1 - 1 1,236 2022-04-02 13:04:13
37 [line:epsilon] 2,827,375 2,009 - 5 - 0 - 3 - 1 1,722 2022-04-02 13:01:11
67 Apologize 1,326,205 1,203 - 24 - 3 - 7 - 2 660 2022-04-02 12:58:31
61 Heavenly Castle velier [FC] 3,517,180 2,256 - 16 - 0 - 0 - 1 2,272 2022-04-02 12:57:07
8 Punkture [FC] 2,066,130 1,333 - 0 - 0 - 0 - 1 1,333 2022-04-02 12:52:18
49 INSANE INFLAME 2,369,445 2,437 - 12 - 1 - 4 - 1 1,027 2022-04-02 12:50:23
29 Upshift 2,859,690 2,137 - 6 - 0 - 1 - 0 1,683 2022-04-02 12:46:56
62 Chronomia 3,069,170 2,178 - 8 - 0 - 3 - 0 1,870 2022-04-02 12:44:17
33 HeadXplit 2,711,865 2,491 - 15 - 0 - 1 - 0 1,338 2022-04-02 12:41:33
24 FACTORY_RESET 1,522,745 1,352 - 9 - 0 - 1 - 1 777 2022-04-02 12:38:43
89 FACTORY_RESET 26,075 16 - 1 - 0 - 0 - 0 17 2022-04-02 12:37:12
17 Lyrith -Labyrinth Lilith- [FC] 2,896,260 1,862 - 8 - 0 - 0 - 2 1,870 2022-04-02 12:36:24
19 Angelic Jelly [FC] 2,243,025 1,443 - 5 - 0 - 0 - 0 1,448 2022-04-02 12:33:39
114 A Kidney Stone 1,748,315 1,617 - 1 - 0 - 1 - 0 859 2022-04-02 12:31:28
715 Rage Template 1,855,015 1,419 - 3 - 0 - 4 - 1 1,075 2022-04-02 12:29:00
12 Once Upon a Time in Transylvania [FC] 3,586,425 2,313 - 1 - 0 - 0 - 0 2,314 2022-04-02 12:26:48
376 Once Upon a Time in Transylvania 188,440 125 - 0 - 0 - 1 - 0 120 2022-04-02 12:23:27
10 BarGain [FC] 3,026,875 1,952 - 1 - 0 - 0 - 0 1,953 2022-04-02 12:22:02
1 2 3 4 5 6 7 8 9